KAL005 RKSI-KLAS
Flight info
| Callsign | KAL005 |
|---|---|
| Flight time | N/A |
| Altitude | 27000 |
| Route | EGOBA Y697 TORUS/N0495F310 Y697 KAE Y437 LESBU/N0489F330 Y437 TENAS L512 GTC Y512 ADNAP OTR5 KALNA/M083F330 DCT 42N160E 44N170E 44N180E 43N170W 42N160W 41N150W/M083F350 41N140W 40N130W/N0479F350 DCT SHENU DCT ENI DCT OAL DCT TQILA COKTL4 |
| Aircraft | B77W/H-SDE2FGHIJ1J3J5M1P2RWXYZ/LB1D1 |
Departure
| Time | 2026-05-07 11:37 |
|---|---|
| Airport | Incheon International Airport (RKSI) |
Arrival
| Time | N/A |
|---|---|
| Airport | Harry Reid International Airport (KLAS) |
| Time | Latitude | Longitude | Altitude | Speed | Heading |
|---|---|---|---|---|---|
| 2026-05-07 10:48 | 37.46569 | 126.43417 | 35 ft | 0 kts | 319° |
| 2026-05-07 11:22 | 37.46567 | 126.43418 | 35 ft | 1 kts | 319° |
| 2026-05-07 11:22 | 37.46556 | 126.43430 | 35 ft | 2 kts | 319° |
| 2026-05-07 11:22 | 37.46545 | 126.43443 | 35 ft | 2 kts | 319° |
| 2026-05-07 11:22 | 37.46533 | 126.43456 | 35 ft | 2 kts | 319° |
| 2026-05-07 11:23 | 37.46522 | 126.43468 | 35 ft | 2 kts | 319° |
| 2026-05-07 11:23 | 37.46513 | 126.43481 | 35 ft | 2 kts | 292° |
| 2026-05-07 11:23 | 37.46510 | 126.43500 | 35 ft | 2 kts | 263° |
| 2026-05-07 11:23 | 37.46514 | 126.43517 | 35 ft | 2 kts | 236° |
| 2026-05-07 11:24 | 37.46523 | 126.43531 | 35 ft | 1 kts | 229° |
| 2026-05-07 11:24 | 37.46527 | 126.43539 | 35 ft | 1 kts | 234° |
| 2026-05-07 11:24 | 37.46528 | 126.43539 | 35 ft | 0 kts | 234° |
| 2026-05-07 11:26 | 37.46526 | 126.43536 | 35 ft | 1 kts | 234° |
| 2026-05-07 11:26 | 37.46510 | 126.43507 | 35 ft | 6 kts | 234° |
| 2026-05-07 11:26 | 37.46468 | 126.43462 | 35 ft | 9 kts | 193° |
| 2026-05-07 11:27 | 37.46410 | 126.43494 | 35 ft | 9 kts | 145° |
| 2026-05-07 11:27 | 37.46346 | 126.43550 | 35 ft | 13 kts | 144° |
| 2026-05-07 11:27 | 37.46267 | 126.43619 | 35 ft | 13 kts | 144° |
| 2026-05-07 11:27 | 37.46197 | 126.43683 | 35 ft | 11 kts | 144° |
| 2026-05-07 11:28 | 37.46153 | 126.43749 | 35 ft | 9 kts | 92° |
| 2026-05-07 11:28 | 37.46176 | 126.43829 | 35 ft | 10 kts | 56° |
| 2026-05-07 11:28 | 37.46217 | 126.43902 | 35 ft | 10 kts | 54° |
| 2026-05-07 11:28 | 37.46258 | 126.43976 | 35 ft | 10 kts | 54° |
| 2026-05-07 11:29 | 37.46300 | 126.44050 | 35 ft | 10 kts | 54° |
| 2026-05-07 11:29 | 37.46342 | 126.44125 | 35 ft | 10 kts | 54° |
| 2026-05-07 11:29 | 37.46385 | 126.44201 | 35 ft | 10 kts | 54° |
| 2026-05-07 11:29 | 37.46429 | 126.44280 | 35 ft | 11 kts | 54° |
| 2026-05-07 11:30 | 37.46476 | 126.44361 | 35 ft | 11 kts | 54° |
| 2026-05-07 11:30 | 37.46523 | 126.44450 | 35 ft | 12 kts | 60° |
| 2026-05-07 11:30 | 37.46566 | 126.44544 | 35 ft | 11 kts | 54° |
| 2026-05-07 11:30 | 37.46579 | 126.44627 | 35 ft | 9 kts | 127° |
| 2026-05-07 11:31 | 37.46527 | 126.44680 | 35 ft | 9 kts | 144° |
| 2026-05-07 11:31 | 37.46472 | 126.44730 | 35 ft | 10 kts | 144° |
| 2026-05-07 11:31 | 37.46412 | 126.44782 | 35 ft | 10 kts | 144° |
| 2026-05-07 11:31 | 37.46349 | 126.44839 | 35 ft | 11 kts | 144° |
| 2026-05-07 11:32 | 37.46205 | 126.44967 | 35 ft | 13 kts | 144° |
| 2026-05-07 11:32 | 37.46127 | 126.45036 | 35 ft | 14 kts | 144° |
| 2026-05-07 11:32 | 37.46044 | 126.45110 | 35 ft | 14 kts | 144° |
| 2026-05-07 11:33 | 37.45959 | 126.45187 | 35 ft | 15 kts | 144° |
| 2026-05-07 11:33 | 37.45869 | 126.45267 | 35 ft | 16 kts | 144° |
| 2026-05-07 11:33 | 37.45777 | 126.45348 | 35 ft | 16 kts | 144° |
| 2026-05-07 11:33 | 37.45681 | 126.45434 | 35 ft | 17 kts | 144° |
| 2026-05-07 11:34 | 37.45583 | 126.45521 | 35 ft | 17 kts | 144° |
| 2026-05-07 11:34 | 37.45483 | 126.45611 | 35 ft | 17 kts | 144° |
| 2026-05-07 11:34 | 37.45381 | 126.45702 | 35 ft | 17 kts | 144° |
| 2026-05-07 11:34 | 37.45302 | 126.45797 | 35 ft | 14 kts | 97° |
| 2026-05-07 11:35 | 37.45338 | 126.45907 | 35 ft | 13 kts | 54° |
| 2026-05-07 11:35 | 37.45389 | 126.45996 | 35 ft | 11 kts | 54° |
| 2026-05-07 11:35 | 37.45435 | 126.46061 | 35 ft | 8 kts | 15° |
| 2026-05-07 11:35 | 37.45480 | 126.46033 | 35 ft | 9 kts | 321° |
| 2026-05-07 11:36 | 37.45643 | 126.45887 | 35 ft | 60 kts | 324° |
| 2026-05-07 11:36 | 37.46173 | 126.45416 | 35 ft | 124 kts | 324° |
| 2026-05-07 11:36 | 37.47042 | 126.44644 | 37 ft | 177 kts | 323° |
| 2026-05-07 11:36 | 37.48120 | 126.43732 | 531 ft | 188 kts | 326° |
| 2026-05-07 11:37 | 37.49206 | 126.42899 | 1478 ft | 182 kts | 325° |
| 2026-05-07 11:37 | 37.50215 | 126.42082 | 2234 ft | 175 kts | 324° |
| 2026-05-07 11:37 | 37.51258 | 126.41213 | 2649 ft | 182 kts | 324° |
| 2026-05-07 11:37 | 37.52304 | 126.40336 | 3160 ft | 183 kts | 324° |
| 2026-05-07 11:38 | 37.53409 | 126.39411 | 3446 ft | 199 kts | 324° |
| 2026-05-07 11:38 | 37.54609 | 126.38409 | 3719 ft | 216 kts | 324° |
| 2026-05-07 11:38 | 37.55918 | 126.37402 | 4192 ft | 225 kts | 335° |
| 2026-05-07 11:38 | 37.57417 | 126.36790 | 4827 ft | 228 kts | 341° |
| 2026-05-07 11:39 | 37.58940 | 126.36249 | 5359 ft | 234 kts | 341° |
| 2026-05-07 11:39 | 37.60535 | 126.35686 | 5458 ft | 234 kts | 341° |
| 2026-05-07 11:39 | 37.62157 | 126.35491 | 5460 ft | 241 kts | 4° |
| 2026-05-07 11:39 | 37.63744 | 126.36201 | 5454 ft | 248 kts | 30° |
| 2026-05-07 11:40 | 37.65004 | 126.37837 | 5460 ft | 273 kts | 58° |
| 2026-05-07 11:40 | 37.65763 | 126.40090 | 5475 ft | 281 kts | 68° |
| 2026-05-07 11:40 | 37.66387 | 126.42403 | 5470 ft | 282 kts | 69° |
| 2026-05-07 11:40 | 37.66669 | 126.44858 | 5450 ft | 283 kts | 95° |
| 2026-05-07 11:41 | 37.66224 | 126.47333 | 5778 ft | 295 kts | 107° |
| 2026-05-07 11:41 | 37.65582 | 126.49715 | 6661 ft | 289 kts | 109° |
| 2026-05-07 11:41 | 37.64897 | 126.52109 | 7251 ft | 294 kts | 110° |
| 2026-05-07 11:41 | 37.64048 | 126.54472 | 7790 ft | 298 kts | 128° |
| 2026-05-07 11:42 | 37.62661 | 126.56403 | 8361 ft | 299 kts | 140° |
| 2026-05-07 11:42 | 37.61139 | 126.58162 | 9048 ft | 299 kts | 142° |
| 2026-05-07 11:42 | 37.59595 | 126.59910 | 9614 ft | 303 kts | 142° |
| 2026-05-07 11:42 | 37.58009 | 126.61718 | 10187 ft | 308 kts | 143° |
| 2026-05-07 11:43 | 37.56394 | 126.63552 | 10469 ft | 324 kts | 143° |
| 2026-05-07 11:43 | 37.54661 | 126.65517 | 10740 ft | 341 kts | 143° |
| 2026-05-07 11:43 | 37.52875 | 126.67558 | 11037 ft | 357 kts | 143° |
| 2026-05-07 11:43 | 37.51004 | 126.69695 | 11366 ft | 372 kts | 143° |
| 2026-05-07 11:44 | 37.49045 | 126.71928 | 11730 ft | 386 kts | 143° |
| 2026-05-07 11:44 | 37.47033 | 126.74221 | 12429 ft | 389 kts | 143° |
| 2026-05-07 11:44 | 37.45057 | 126.76563 | 13153 ft | 395 kts | 138° |
| 2026-05-07 11:44 | 37.43356 | 126.79330 | 13743 ft | 410 kts | 127° |
| 2026-05-07 11:45 | 37.42060 | 126.82541 | 14459 ft | 420 kts | 116° |
| 2026-05-07 11:45 | 37.41251 | 126.86108 | 15313 ft | 425 kts | 104° |
| 2026-05-07 11:45 | 37.40979 | 126.89776 | 16028 ft | 433 kts | 94° |
| 2026-05-07 11:45 | 37.41161 | 126.93612 | 16485 ft | 446 kts | 83° |
| 2026-05-07 11:46 | 37.41800 | 126.97487 | 17013 ft | 455 kts | 79° |
| 2026-05-07 11:46 | 37.42521 | 127.01322 | 17647 ft | 459 kts | 79° |
| 2026-05-07 11:46 | 37.43239 | 127.05271 | 18252 ft | 464 kts | 80° |
| 2026-05-07 11:46 | 37.43941 | 127.09241 | 18858 ft | 468 kts | 80° |
| 2026-05-07 11:47 | 37.44629 | 127.13226 | 19325 ft | 476 kts | 80° |
| 2026-05-07 11:47 | 37.45328 | 127.17350 | 19844 ft | 482 kts | 81° |
| 2026-05-07 11:47 | 37.46022 | 127.21491 | 20358 ft | 488 kts | 81° |
| 2026-05-07 11:47 | 37.46716 | 127.25673 | 20900 ft | 493 kts | 81° |
| 2026-05-07 11:48 | 37.47411 | 127.29891 | 21455 ft | 496 kts | 80° |
| 2026-05-07 11:48 | 37.48105 | 127.34133 | 21943 ft | 502 kts | 81° |
| 2026-05-07 11:48 | 37.48808 | 127.38448 | 22381 ft | 508 kts | 80° |
| 2026-05-07 11:48 | 37.49514 | 127.42813 | 22860 ft | 512 kts | 80° |
| 2026-05-07 11:49 | 37.50224 | 127.47208 | 23343 ft | 516 kts | 80° |
| 2026-05-07 11:49 | 37.50941 | 127.51670 | 23788 ft | 522 kts | 80° |
| 2026-05-07 11:49 | 37.51658 | 127.56136 | 24264 ft | 525 kts | 81° |
| 2026-05-07 11:49 | 37.52374 | 127.60624 | 24783 ft | 529 kts | 80° |
| 2026-05-07 11:50 | 37.53099 | 127.65176 | 25240 ft | 533 kts | 81° |
| 2026-05-07 11:50 | 37.53827 | 127.69757 | 25588 ft | 540 kts | 81° |
| 2026-05-07 11:50 | 37.54567 | 127.74418 | 25973 ft | 545 kts | 81° |
| 2026-05-07 11:50 | 37.55309 | 127.79108 | 26331 ft | 551 kts | 81° |
| 2026-05-07 11:51 | 37.56054 | 127.83830 | 26764 ft | 554 kts | 81° |
| 2026-05-07 11:51 | 37.56805 | 127.88605 | 26887 ft | 563 kts | 81° |
| 2026-05-07 11:51 | 37.57569 | 127.93478 | 26901 ft | 574 kts | 81° |
| 2026-05-07 11:51 | 37.58350 | 127.98473 | 26899 ft | 578 kts | 81° |
| 2026-05-07 11:52 | 37.59120 | 128.03403 | 26892 ft | 576 kts | 81° |
| 2026-05-07 11:52 | 37.59893 | 128.08374 | 26892 ft | 577 kts | 81° |
| 2026-05-07 11:52 | 37.60655 | 128.13289 | 26897 ft | 577 kts | 81° |
| 2026-05-07 11:52 | 37.61423 | 128.18256 | 26900 ft | 586 kts | 81° |
| 2026-05-07 11:53 | 37.62210 | 128.23369 | 27041 ft | 596 kts | 81° |
| 2026-05-07 11:53 | 37.62998 | 128.28494 | 27477 ft | 599 kts | 81° |
| 2026-05-07 11:53 | 37.63790 | 128.33658 | 28176 ft | 596 kts | 81° |
| 2026-05-07 11:53 | 37.64565 | 128.38728 | 28842 ft | 594 kts | 81° |
| 2026-05-07 11:54 | 37.65346 | 128.43858 | 29450 ft | 593 kts | 81° |
| 2026-05-07 11:54 | 37.66118 | 128.48938 | 30008 ft | 594 kts | 81° |
| 2026-05-07 11:54 | 37.66887 | 128.54018 | 30611 ft | 593 kts | 81° |
| 2026-05-07 11:54 | 37.67663 | 128.59164 | 30873 ft | 597 kts | 81° |
| 2026-05-07 11:55 | 37.68422 | 128.64235 | 30879 ft | 594 kts | 81° |
| 2026-05-07 11:55 | 37.69832 | 128.74443 | 30863 ft | 588 kts | 87° |
| 2026-05-07 11:56 | 37.69994 | 128.84747 | 30851 ft | 587 kts | 95° |
| 2026-05-07 11:56 | 37.69877 | 128.94943 | 30848 ft | 583 kts | 95° |
| 2026-05-07 11:57 | 37.69748 | 129.05156 | 30842 ft | 584 kts | 95° |
| 2026-05-07 11:57 | 37.69613 | 129.15376 | 30839 ft | 582 kts | 95° |
| 2026-05-07 11:58 | 37.69471 | 129.25491 | 30836 ft | 580 kts | 95° |
| 2026-05-07 11:58 | 37.69321 | 129.35663 | 30842 ft | 579 kts | 95° |
| 2026-05-07 11:59 | 37.69162 | 129.45822 | 30842 ft | 579 kts | 95° |
| 2026-05-07 11:59 | 37.68997 | 129.55898 | 30840 ft | 578 kts | 95° |
| 2026-05-07 12:00 | 37.68819 | 129.66069 | 30840 ft | 579 kts | 96° |
| 2026-05-07 12:00 | 37.68634 | 129.76215 | 31073 ft | 585 kts | 96° |
| 2026-05-07 12:00 | 37.68538 | 129.81306 | 31796 ft | 580 kts | 95° |
| 2026-05-07 12:01 | 37.68442 | 129.86381 | 32573 ft | 573 kts | 96° |
| 2026-05-07 12:01 | 37.68343 | 129.91370 | 32823 ft | 575 kts | 95° |
| 2026-05-07 12:01 | 37.68243 | 129.96397 | 32836 ft | 574 kts | 96° |
| 2026-05-07 12:02 | 37.68038 | 130.06366 | 32847 ft | 569 kts | 95° |
| 2026-05-07 12:02 | 37.67820 | 130.16389 | 32850 ft | 572 kts | 95° |
| 2026-05-07 12:03 | 37.67600 | 130.26315 | 32852 ft | 566 kts | 96° |
| 2026-05-07 12:03 | 37.67368 | 130.36247 | 32855 ft | 570 kts | 96° |
| 2026-05-07 12:04 | 37.67129 | 130.46205 | 32851 ft | 567 kts | 96° |
| 2026-05-07 12:04 | 37.66883 | 130.56126 | 32853 ft | 565 kts | 96° |
| 2026-05-07 12:05 | 37.66629 | 130.66002 | 32851 ft | 564 kts | 97° |
| 2026-05-07 12:05 | 37.66369 | 130.75813 | 32841 ft | 562 kts | 97° |
| 2026-05-07 12:06 | 37.66099 | 130.85655 | 32842 ft | 563 kts | 96° |
| 2026-05-07 12:06 | 37.65821 | 130.95491 | 32842 ft | 563 kts | 96° |
| 2026-05-07 12:07 | 37.65536 | 131.05347 | 32840 ft | 561 kts | 97° |
| 2026-05-07 12:07 | 37.65245 | 131.15122 | 32835 ft | 558 kts | 96° |
| 2026-05-07 12:08 | 37.64946 | 131.24840 | 32832 ft | 561 kts | 97° |
| 2026-05-07 12:08 | 37.64636 | 131.34677 | 32831 ft | 560 kts | 96° |
| 2026-05-07 12:09 | 37.64321 | 131.44447 | 32835 ft | 558 kts | 96° |
| 2026-05-07 12:09 | 37.63997 | 131.54196 | 32837 ft | 559 kts | 96° |
| 2026-05-07 12:10 | 37.63835 | 131.63943 | 32839 ft | 559 kts | 92° |
| 2026-05-07 12:10 | 37.63931 | 131.73749 | 32820 ft | 560 kts | 93° |
| 2026-05-07 12:11 | 37.64007 | 131.83543 | 32825 ft | 561 kts | 94° |
| 2026-05-07 12:11 | 37.64064 | 131.93306 | 32825 ft | 556 kts | 94° |
| 2026-05-07 12:12 | 37.64105 | 132.03098 | 32828 ft | 559 kts | 94° |
| 2026-05-07 12:12 | 37.64136 | 132.12828 | 32836 ft | 558 kts | 94° |
| 2026-05-07 12:13 | 37.64156 | 132.22560 | 32843 ft | 557 kts | 94° |
| 2026-05-07 12:13 | 37.64168 | 132.32286 | 32848 ft | 556 kts | 94° |
| 2026-05-07 12:14 | 37.64171 | 132.42068 | 32846 ft | 558 kts | 94° |
| 2026-05-07 12:14 | 37.64165 | 132.51817 | 32839 ft | 557 kts | 94° |
| 2026-05-07 12:15 | 37.64150 | 132.61587 | 32838 ft | 559 kts | 94° |
| 2026-05-07 12:15 | 37.64422 | 132.71310 | 32831 ft | 558 kts | 88° |
| 2026-05-07 12:16 | 37.65169 | 132.81043 | 32827 ft | 562 kts | 88° |
| 2026-05-07 12:16 | 37.65917 | 132.90854 | 32826 ft | 559 kts | 88° |
| 2026-05-07 12:17 | 37.66643 | 133.00554 | 32834 ft | 561 kts | 88° |
| 2026-05-07 12:17 | 37.67365 | 133.10318 | 32838 ft | 557 kts | 88° |
| 2026-05-07 12:18 | 37.68073 | 133.20055 | 32839 ft | 561 kts | 88° |
| 2026-05-07 12:18 | 37.68777 | 133.29839 | 32843 ft | 557 kts | 88° |
| 2026-05-07 12:19 | 37.69465 | 133.39528 | 32845 ft | 557 kts | 88° |
| 2026-05-07 12:19 | 37.70143 | 133.49203 | 32851 ft | 556 kts | 88° |
| 2026-05-07 12:20 | 37.70817 | 133.58939 | 32851 ft | 556 kts | 88° |
| 2026-05-07 12:20 | 37.71478 | 133.68596 | 32842 ft | 555 kts | 88° |
| 2026-05-07 12:21 | 37.72134 | 133.78323 | 32846 ft | 554 kts | 88° |
| 2026-05-07 12:21 | 37.72769 | 133.87950 | 32853 ft | 554 kts | 88° |
| 2026-05-07 12:22 | 37.73401 | 133.97620 | 32853 ft | 554 kts | 88° |
| 2026-05-07 12:22 | 37.74027 | 134.07349 | 32856 ft | 554 kts | 88° |
| 2026-05-07 12:23 | 37.74639 | 134.16966 | 32861 ft | 552 kts | 88° |
| 2026-05-07 12:23 | 37.75247 | 134.26653 | 32865 ft | 553 kts | 88° |
| 2026-05-07 12:24 | 37.75846 | 134.36320 | 32868 ft | 553 kts | 88° |
| 2026-05-07 12:24 | 37.76434 | 134.45946 | 32872 ft | 553 kts | 88° |
| 2026-05-07 12:25 | 37.77017 | 134.55602 | 32874 ft | 552 kts | 88° |
| 2026-05-07 12:25 | 37.77590 | 134.65240 | 32877 ft | 553 kts | 89° |
| 2026-05-07 12:26 | 37.78158 | 134.74922 | 32868 ft | 551 kts | 89° |
| 2026-05-07 12:26 | 37.78717 | 134.84595 | 32868 ft | 553 kts | 89° |
| 2026-05-07 12:27 | 37.79265 | 134.94186 | 32874 ft | 551 kts | 89° |
| 2026-05-07 12:27 | 37.79808 | 135.03865 | 32878 ft | 553 kts | 89° |
| 2026-05-07 12:28 | 37.80341 | 135.13492 | 32881 ft | 551 kts | 89° |
| 2026-05-07 12:28 | 37.80866 | 135.23105 | 32881 ft | 550 kts | 89° |
| 2026-05-07 12:29 | 37.81385 | 135.32782 | 32882 ft | 551 kts | 89° |
| 2026-05-07 12:29 | 37.81895 | 135.42409 | 32884 ft | 548 kts | 89° |
| 2026-05-07 12:30 | 37.82394 | 135.52002 | 32880 ft | 548 kts | 89° |
| 2026-05-07 12:30 | 37.82884 | 135.61560 | 32891 ft | 549 kts | 89° |
| 2026-05-07 12:31 | 37.83369 | 135.71164 | 32880 ft | 546 kts | 89° |
| 2026-05-07 12:31 | 37.83842 | 135.80699 | 32883 ft | 545 kts | 89° |
| 2026-05-07 12:32 | 37.84306 | 135.90212 | 32882 ft | 546 kts | 89° |
| 2026-05-07 12:32 | 37.84766 | 135.99797 | 32881 ft | 546 kts | 89° |
| 2026-05-07 12:33 | 37.85440 | 136.14145 | 32878 ft | 545 kts | 89° |
| 2026-05-07 12:33 | 37.85878 | 136.23665 | 32882 ft | 545 kts | 89° |
| 2026-05-07 12:34 | 37.86309 | 136.33203 | 32878 ft | 544 kts | 89° |
| 2026-05-07 12:34 | 37.86731 | 136.42760 | 32881 ft | 545 kts | 89° |
| 2026-05-07 12:35 | 37.87149 | 136.52348 | 32887 ft | 544 kts | 89° |
| 2026-05-07 12:35 | 37.87555 | 136.61839 | 32889 ft | 543 kts | 89° |
| 2026-05-07 12:36 | 37.87956 | 136.71399 | 32884 ft | 542 kts | 90° |
| 2026-05-07 12:36 | 37.88346 | 136.80882 | 32876 ft | 544 kts | 90° |
| 2026-05-07 12:37 | 37.88728 | 136.90369 | 32889 ft | 542 kts | 90° |
| 2026-05-07 12:37 | 37.89104 | 136.99904 | 32890 ft | 540 kts | 90° |
| 2026-05-07 12:38 | 37.89469 | 137.09322 | 32899 ft | 541 kts | 90° |
| 2026-05-07 12:38 | 37.89829 | 137.18823 | 32898 ft | 542 kts | 90° |
| 2026-05-07 12:39 | 37.90180 | 137.28334 | 32901 ft | 541 kts | 90° |
| 2026-05-07 12:39 | 37.90540 | 137.37811 | 32907 ft | 541 kts | 90° |
| 2026-05-07 12:40 | 37.90899 | 137.47356 | 32906 ft | 543 kts | 90° |
| 2026-05-07 12:40 | 37.91246 | 137.56805 | 32908 ft | 539 kts | 90° |
| 2026-05-07 12:41 | 37.91585 | 137.66283 | 32909 ft | 541 kts | 90° |
| 2026-05-07 12:41 | 37.91917 | 137.75745 | 32903 ft | 540 kts | 90° |
| 2026-05-07 12:42 | 37.92241 | 137.85200 | 32907 ft | 540 kts | 90° |
| 2026-05-07 12:42 | 37.92557 | 137.94649 | 32914 ft | 537 kts | 90° |
| 2026-05-07 12:43 | 37.92865 | 138.04097 | 32913 ft | 540 kts | 90° |
| 2026-05-07 12:43 | 37.93164 | 138.13519 | 32919 ft | 538 kts | 90° |
| 2026-05-07 12:44 | 37.93458 | 138.23016 | 32917 ft | 540 kts | 90° |
| 2026-05-07 12:44 | 37.93744 | 138.32468 | 32923 ft | 536 kts | 90° |
| 2026-05-07 12:45 | 37.94024 | 138.41972 | 32922 ft | 538 kts | 90° |
| 2026-05-07 12:45 | 37.94292 | 138.51363 | 32927 ft | 538 kts | 91° |
| 2026-05-07 12:46 | 37.94554 | 138.60829 | 32928 ft | 536 kts | 90° |
| 2026-05-07 12:46 | 37.94808 | 138.70273 | 32915 ft | 537 kts | 91° |
| 2026-05-07 12:47 | 37.95053 | 138.79654 | 32914 ft | 537 kts | 91° |
| 2026-05-07 12:47 | 37.95293 | 138.89119 | 32912 ft | 536 kts | 91° |
| 2026-05-07 12:48 | 37.95524 | 138.98526 | 32908 ft | 538 kts | 91° |
| 2026-05-07 12:48 | 37.95748 | 139.07958 | 32910 ft | 537 kts | 91° |
| 2026-05-07 12:49 | 37.96431 | 139.17372 | 32919 ft | 541 kts | 85° |
| 2026-05-07 12:49 | 37.97449 | 139.26800 | 32917 ft | 540 kts | 84° |
| 2026-05-07 12:50 | 37.98455 | 139.36217 | 32915 ft | 542 kts | 85° |
| 2026-05-07 12:50 | 37.99454 | 139.45674 | 32918 ft | 542 kts | 85° |
| 2026-05-07 12:51 | 38.00438 | 139.55089 | 32922 ft | 542 kts | 85° |
| 2026-05-07 12:51 | 38.01421 | 139.64577 | 32935 ft | 542 kts | 84° |
| 2026-05-07 12:52 | 38.02390 | 139.74000 | 32931 ft | 543 kts | 85° |
| 2026-05-07 12:52 | 38.03356 | 139.83491 | 32942 ft | 544 kts | 85° |
| 2026-05-07 12:53 | 38.04314 | 139.92969 | 32940 ft | 543 kts | 85° |
| 2026-05-07 12:53 | 38.05265 | 140.02467 | 32931 ft | 543 kts | 85° |
| 2026-05-07 12:54 | 38.06207 | 140.11957 | 32924 ft | 543 kts | 85° |
| 2026-05-07 12:54 | 38.07141 | 140.21436 | 32926 ft | 544 kts | 85° |
| 2026-05-07 12:55 | 38.08068 | 140.30928 | 32924 ft | 542 kts | 85° |
| 2026-05-07 12:55 | 38.08984 | 140.40393 | 32925 ft | 543 kts | 85° |
| 2026-05-07 12:56 | 38.09895 | 140.49875 | 32930 ft | 544 kts | 85° |
| 2026-05-07 12:56 | 38.10802 | 140.59404 | 32913 ft | 543 kts | 85° |
| 2026-05-07 12:57 | 38.11696 | 140.68886 | 32891 ft | 543 kts | 86° |
| 2026-05-07 12:57 | 38.12584 | 140.78381 | 32886 ft | 544 kts | 86° |
| 2026-05-07 12:58 | 38.13462 | 140.87932 | 32885 ft | 543 kts | 88° |
| 2026-05-07 12:58 | 38.13228 | 140.97391 | 32901 ft | 537 kts | 101° |
| 2026-05-07 12:59 | 38.12206 | 141.06747 | 32899 ft | 535 kts | 102° |
| 2026-05-07 12:59 | 38.11156 | 141.16100 | 32894 ft | 534 kts | 102° |
| 2026-05-07 13:00 | 38.10099 | 141.25412 | 32891 ft | 537 kts | 102° |
| 2026-05-07 13:00 | 38.09037 | 141.34692 | 32887 ft | 534 kts | 102° |
| 2026-05-07 13:01 | 38.07959 | 141.44028 | 32881 ft | 537 kts | 102° |
| 2026-05-07 13:01 | 38.06871 | 141.53398 | 32875 ft | 533 kts | 102° |
| 2026-05-07 13:02 | 38.05788 | 141.62636 | 32874 ft | 535 kts | 102° |
| 2026-05-07 13:02 | 38.04690 | 141.71957 | 32862 ft | 531 kts | 102° |
| 2026-05-07 13:03 | 38.03595 | 141.81169 | 32864 ft | 533 kts | 102° |
| 2026-05-07 13:03 | 38.02488 | 141.90418 | 32867 ft | 531 kts | 102° |
| 2026-05-07 13:04 | 38.01374 | 141.99669 | 32862 ft | 531 kts | 102° |
| 2026-05-07 13:04 | 38.00258 | 142.08874 | 32866 ft | 531 kts | 102° |
| 2026-05-07 13:05 | 37.99126 | 142.18131 | 32871 ft | 531 kts | 102° |
| 2026-05-07 13:05 | 37.97997 | 142.27303 | 32873 ft | 530 kts | 102° |
| 2026-05-07 13:06 | 37.96854 | 142.36531 | 32875 ft | 530 kts | 103° |
| 2026-05-07 13:06 | 37.95710 | 142.45702 | 32882 ft | 532 kts | 102° |
| 2026-05-07 13:07 | 37.94554 | 142.54918 | 32882 ft | 531 kts | 103° |
| 2026-05-07 13:07 | 37.93394 | 142.64098 | 32887 ft | 530 kts | 102° |
| 2026-05-07 13:08 | 37.92221 | 142.73322 | 32877 ft | 530 kts | 103° |
| 2026-05-07 13:08 | 37.91048 | 142.82487 | 32881 ft | 530 kts | 103° |
| 2026-05-07 13:09 | 37.89865 | 142.91676 | 32884 ft | 531 kts | 103° |
| 2026-05-07 13:09 | 37.88669 | 143.00902 | 32894 ft | 532 kts | 103° |
| 2026-05-07 13:10 | 37.87472 | 143.10083 | 32894 ft | 529 kts | 103° |
| 2026-05-07 13:10 | 37.86257 | 143.19333 | 32895 ft | 534 kts | 103° |
| 2026-05-07 13:11 | 37.85043 | 143.28536 | 32897 ft | 532 kts | 103° |
| 2026-05-07 13:11 | 37.83821 | 143.37723 | 32898 ft | 534 kts | 103° |
| 2026-05-07 13:12 | 37.82582 | 143.46988 | 32902 ft | 535 kts | 103° |
| 2026-05-07 13:12 | 37.81030 | 143.56070 | 32904 ft | 526 kts | 112° |
| 2026-05-07 13:13 | 37.78621 | 143.64778 | 32910 ft | 528 kts | 114° |
| 2026-05-07 13:13 | 37.76168 | 143.73486 | 32903 ft | 527 kts | 115° |
| 2026-05-07 13:14 | 37.73695 | 143.82237 | 32904 ft | 528 kts | 115° |
| 2026-05-07 13:14 | 37.71237 | 143.90916 | 32910 ft | 529 kts | 115° |
| 2026-05-07 13:15 | 37.68767 | 143.99608 | 32909 ft | 528 kts | 115° |
| 2026-05-07 13:15 | 37.66282 | 144.08331 | 32913 ft | 528 kts | 115° |
| 2026-05-07 13:16 | 37.63796 | 144.17018 | 32914 ft | 530 kts | 115° |
| 2026-05-07 13:16 | 37.61297 | 144.25732 | 32916 ft | 530 kts | 115° |
| 2026-05-07 13:17 | 37.58781 | 144.34471 | 32916 ft | 530 kts | 115° |
| 2026-05-07 13:17 | 37.56266 | 144.43182 | 32919 ft | 529 kts | 115° |
| 2026-05-07 13:18 | 37.53752 | 144.51860 | 32923 ft | 531 kts | 115° |
| 2026-05-07 13:18 | 37.51223 | 144.60567 | 32923 ft | 529 kts | 115° |
| 2026-05-07 13:19 | 37.48672 | 144.69312 | 32918 ft | 533 kts | 115° |
| 2026-05-07 13:19 | 37.46141 | 144.77969 | 32923 ft | 533 kts | 115° |
| 2026-05-07 13:20 | 37.43561 | 144.86762 | 32924 ft | 532 kts | 115° |
| 2026-05-07 13:20 | 37.41011 | 144.95425 | 32926 ft | 532 kts | 115° |
| 2026-05-07 13:21 | 37.38429 | 145.04172 | 32924 ft | 531 kts | 115° |
| 2026-05-07 13:21 | 37.35870 | 145.12813 | 32925 ft | 531 kts | 115° |
| 2026-05-07 13:22 | 37.33277 | 145.21533 | 32931 ft | 534 kts | 115° |
| 2026-05-07 13:22 | 37.30691 | 145.30212 | 32938 ft | 531 kts | 115° |
| 2026-05-07 13:23 | 37.28096 | 145.38890 | 32941 ft | 532 kts | 115° |
| 2026-05-07 13:23 | 37.25494 | 145.47563 | 32946 ft | 532 kts | 115° |
| 2026-05-07 13:24 | 37.23196 | 145.56300 | 32944 ft | 535 kts | 105° |
| 2026-05-07 13:24 | 37.22659 | 145.65749 | 32948 ft | 548 kts | 88° |
| 2026-05-07 13:25 | 37.24198 | 145.75087 | 32939 ft | 551 kts | 70° |
| 2026-05-07 13:25 | 37.27666 | 145.83566 | 32952 ft | 551 kts | 56° |
| 2026-05-07 13:26 | 37.31895 | 145.91621 | 32953 ft | 553 kts | 56° |
| 2026-05-07 13:26 | 37.36061 | 145.99725 | 32961 ft | 551 kts | 56° |
| 2026-05-07 13:27 | 37.40156 | 146.07829 | 32961 ft | 553 kts | 57° |
| 2026-05-07 13:27 | 37.44232 | 146.15988 | 32962 ft | 551 kts | 57° |
| 2026-05-07 13:28 | 37.48298 | 146.24179 | 32960 ft | 553 kts | 57° |
| 2026-05-07 13:28 | 37.52324 | 146.32340 | 32970 ft | 551 kts | 57° |
| 2026-05-07 13:29 | 37.56374 | 146.40579 | 32964 ft | 553 kts | 57° |
| 2026-05-07 13:29 | 37.60392 | 146.48782 | 32971 ft | 551 kts | 57° |
| 2026-05-07 13:30 | 37.64404 | 146.56996 | 32974 ft | 550 kts | 57° |
| 2026-05-07 13:30 | 37.68401 | 146.65202 | 32973 ft | 552 kts | 57° |
| 2026-05-07 13:31 | 37.72412 | 146.73459 | 32960 ft | 553 kts | 58° |
| 2026-05-07 13:31 | 37.76393 | 146.81677 | 32958 ft | 550 kts | 57° |
| 2026-05-07 13:32 | 37.80404 | 146.89978 | 32958 ft | 552 kts | 58° |
| 2026-05-07 13:32 | 37.84354 | 146.98175 | 32966 ft | 552 kts | 58° |
| 2026-05-07 13:33 | 37.88357 | 147.06499 | 32954 ft | 551 kts | 57° |
| 2026-05-07 13:33 | 37.92301 | 147.14723 | 32961 ft | 551 kts | 57° |
| 2026-05-07 13:34 | 37.98246 | 147.27161 | 32962 ft | 549 kts | 57° |
| 2026-05-07 13:35 | 38.02216 | 147.35490 | 32974 ft | 553 kts | 57° |
| 2026-05-07 13:35 | 38.06169 | 147.43806 | 32975 ft | 551 kts | 57° |
| 2026-05-07 13:36 | 38.10108 | 147.52118 | 32979 ft | 551 kts | 57° |
| 2026-05-07 13:36 | 38.14036 | 147.60425 | 32985 ft | 552 kts | 57° |
| 2026-05-07 13:37 | 38.17966 | 147.68758 | 32969 ft | 550 kts | 57° |
| 2026-05-07 13:37 | 38.21883 | 147.77080 | 32975 ft | 552 kts | 57° |
| 2026-05-07 13:38 | 38.25803 | 147.85437 | 32977 ft | 552 kts | 57° |
| 2026-05-07 13:38 | 38.29725 | 147.93816 | 32985 ft | 552 kts | 57° |
| 2026-05-07 13:39 | 38.33642 | 148.02206 | 32984 ft | 552 kts | 57° |
| 2026-05-07 13:39 | 38.37546 | 148.10593 | 32990 ft | 551 kts | 57° |
| 2026-05-07 13:40 | 38.41441 | 148.18979 | 32988 ft | 552 kts | 57° |
| 2026-05-07 13:40 | 38.45314 | 148.27339 | 32999 ft | 551 kts | 57° |
| 2026-05-07 13:41 | 38.49194 | 148.35741 | 32994 ft | 551 kts | 57° |
| 2026-05-07 13:41 | 38.53072 | 148.44156 | 32997 ft | 551 kts | 57° |
| 2026-05-07 13:42 | 38.56946 | 148.52586 | 33007 ft | 552 kts | 57° |
| 2026-05-07 13:42 | 38.60818 | 148.61037 | 33010 ft | 551 kts | 57° |
| 2026-05-07 13:43 | 38.64681 | 148.69487 | 32991 ft | 554 kts | 58° |
| 2026-05-07 13:43 | 38.68547 | 148.77968 | 32995 ft | 552 kts | 58° |
| 2026-05-07 13:44 | 38.72389 | 148.86417 | 32990 ft | 552 kts | 58° |
| 2026-05-07 13:44 | 38.76234 | 148.94896 | 32997 ft | 553 kts | 58° |
| 2026-05-07 13:45 | 38.80074 | 149.03387 | 32999 ft | 552 kts | 58° |
| 2026-05-07 13:45 | 38.83904 | 149.11879 | 33004 ft | 550 kts | 58° |
| 2026-05-07 13:46 | 38.87691 | 149.20297 | 33009 ft | 550 kts | 58° |
| 2026-05-07 13:46 | 38.91512 | 149.28813 | 33015 ft | 549 kts | 58° |
| 2026-05-07 13:47 | 38.95305 | 149.37289 | 33011 ft | 550 kts | 58° |
| 2026-05-07 13:47 | 38.99095 | 149.45785 | 33021 ft | 549 kts | 58° |
| 2026-05-07 13:48 | 39.02882 | 149.54295 | 33023 ft | 550 kts | 58° |
| 2026-05-07 13:48 | 39.06656 | 149.62797 | 33028 ft | 549 kts | 58° |
| 2026-05-07 13:49 | 39.10432 | 149.71329 | 33018 ft | 549 kts | 58° |
| 2026-05-07 13:49 | 39.14185 | 149.79831 | 33007 ft | 551 kts | 59° |
| 2026-05-07 13:50 | 39.17436 | 149.88744 | 33007 ft | 552 kts | 65° |
| 2026-05-07 13:50 | 39.20497 | 149.97816 | 33008 ft | 552 kts | 65° |
| 2026-05-07 13:51 | 39.23539 | 150.06889 | 33011 ft | 552 kts | 65° |
| 2026-05-07 13:51 | 39.26557 | 150.15927 | 33014 ft | 552 kts | 65° |
| 2026-05-07 13:52 | 39.29578 | 150.25005 | 33020 ft | 552 kts | 65° |
| 2026-05-07 13:52 | 39.32575 | 150.34045 | 33022 ft | 551 kts | 65° |
| 2026-05-07 13:53 | 39.35583 | 150.43150 | 33028 ft | 551 kts | 65° |
| 2026-05-07 13:53 | 39.38562 | 150.52196 | 33029 ft | 551 kts | 65° |
| 2026-05-07 13:54 | 39.41550 | 150.61299 | 33032 ft | 549 kts | 65° |
| 2026-05-07 13:54 | 39.44517 | 150.70366 | 33023 ft | 550 kts | 65° |
| 2026-05-07 13:55 | 39.47485 | 150.79469 | 33027 ft | 550 kts | 65° |
| 2026-05-07 13:55 | 39.50438 | 150.88554 | 33030 ft | 551 kts | 65° |
| 2026-05-07 13:56 | 39.53395 | 150.97682 | 33035 ft | 550 kts | 65° |
| 2026-05-07 13:56 | 39.56341 | 151.06802 | 33035 ft | 552 kts | 65° |
| 2026-05-07 13:57 | 39.59296 | 151.15985 | 33038 ft | 551 kts | 65° |
| 2026-05-07 13:57 | 39.62229 | 151.25125 | 33046 ft | 551 kts | 65° |
| 2026-05-07 13:58 | 39.65154 | 151.34271 | 33051 ft | 552 kts | 65° |
| 2026-05-07 13:58 | 39.68071 | 151.43425 | 33050 ft | 552 kts | 65° |
| 2026-05-07 13:59 | 39.71003 | 151.52657 | 33057 ft | 552 kts | 65° |
| 2026-05-07 13:59 | 39.73899 | 151.61804 | 33060 ft | 552 kts | 65° |
| 2026-05-07 14:00 | 39.76811 | 151.71031 | 33047 ft | 553 kts | 66° |
| 2026-05-07 14:00 | 39.79703 | 151.80228 | 33050 ft | 552 kts | 65° |
| 2026-05-07 14:01 | 39.82592 | 151.89445 | 33058 ft | 551 kts | 65° |
| 2026-05-07 14:01 | 39.85484 | 151.98703 | 33057 ft | 553 kts | 66° |
| 2026-05-07 14:02 | 39.88349 | 152.07906 | 33060 ft | 553 kts | 66° |
| 2026-05-07 14:02 | 39.91224 | 152.17174 | 33062 ft | 553 kts | 65° |
| 2026-05-07 14:03 | 39.94089 | 152.26437 | 33068 ft | 553 kts | 65° |
| 2026-05-07 14:03 | 39.96954 | 152.35735 | 33068 ft | 554 kts | 65° |
| 2026-05-07 14:04 | 39.99805 | 152.45020 | 33070 ft | 554 kts | 65° |
| 2026-05-07 14:04 | 40.02653 | 152.54329 | 33075 ft | 555 kts | 65° |
| 2026-05-07 14:05 | 40.05494 | 152.63641 | 33072 ft | 555 kts | 65° |
| 2026-05-07 14:05 | 40.08339 | 152.73003 | 33063 ft | 556 kts | 66° |
| 2026-05-07 14:06 | 40.11163 | 152.82324 | 33068 ft | 557 kts | 66° |
| 2026-05-07 14:06 | 40.13994 | 152.91705 | 33073 ft | 557 kts | 66° |
| 2026-05-07 14:07 | 40.16832 | 153.01140 | 33067 ft | 557 kts | 66° |
| 2026-05-07 14:07 | 40.19638 | 153.10504 | 33076 ft | 556 kts | 66° |
| 2026-05-07 14:08 | 40.22438 | 153.19879 | 33076 ft | 556 kts | 65° |
| 2026-05-07 14:08 | 40.25249 | 153.29326 | 33075 ft | 558 kts | 66° |
| 2026-05-07 14:09 | 40.28035 | 153.38722 | 33075 ft | 558 kts | 65° |
| 2026-05-07 14:09 | 40.30826 | 153.48166 | 33087 ft | 557 kts | 65° |
| 2026-05-07 14:10 | 40.33603 | 153.57600 | 33085 ft | 557 kts | 65° |
| 2026-05-07 14:10 | 40.36374 | 153.67042 | 33079 ft | 556 kts | 66° |
| 2026-05-07 14:11 | 40.39146 | 153.76523 | 33076 ft | 559 kts | 66° |
| 2026-05-07 14:11 | 40.41908 | 153.86009 | 33080 ft | 557 kts | 66° |
| 2026-05-07 14:12 | 40.44656 | 153.95479 | 33080 ft | 560 kts | 66° |
| 2026-05-07 14:12 | 40.47398 | 154.04962 | 33090 ft | 558 kts | 66° |
| 2026-05-07 14:13 | 40.50152 | 154.14523 | 33098 ft | 559 kts | 66° |
| 2026-05-07 14:13 | 40.52874 | 154.24004 | 33095 ft | 558 kts | 65° |
| 2026-05-07 14:14 | 40.55605 | 154.33553 | 33097 ft | 561 kts | 66° |
| 2026-05-07 14:14 | 40.58322 | 154.43094 | 33101 ft | 557 kts | 65° |
| 2026-05-07 14:15 | 40.61038 | 154.52657 | 33105 ft | 560 kts | 65° |
| 2026-05-07 14:15 | 40.63743 | 154.62222 | 33106 ft | 559 kts | 65° |
| 2026-05-07 14:16 | 40.66439 | 154.71788 | 33093 ft | 561 kts | 66° |
| 2026-05-07 14:16 | 40.69139 | 154.81409 | 33096 ft | 562 kts | 66° |
| 2026-05-07 14:17 | 40.71804 | 154.90939 | 33098 ft | 560 kts | 66° |
| 2026-05-07 14:17 | 40.74486 | 155.00566 | 33105 ft | 561 kts | 66° |
| 2026-05-07 14:18 | 40.77168 | 155.10229 | 33103 ft | 562 kts | 66° |
| 2026-05-07 14:18 | 40.79821 | 155.19826 | 33104 ft | 561 kts | 66° |
| 2026-05-07 14:19 | 40.82475 | 155.29457 | 33105 ft | 561 kts | 66° |
| 2026-05-07 14:19 | 40.85142 | 155.39175 | 33103 ft | 561 kts | 66° |
| 2026-05-07 14:20 | 40.87772 | 155.48796 | 33104 ft | 560 kts | 66° |
| 2026-05-07 14:20 | 40.90387 | 155.58406 | 33105 ft | 558 kts | 66° |
| 2026-05-07 14:21 | 40.93013 | 155.68088 | 33091 ft | 559 kts | 66° |
| 2026-05-07 14:21 | 40.95610 | 155.77696 | 33092 ft | 559 kts | 66° |
| 2026-05-07 14:22 | 40.98212 | 155.87364 | 33092 ft | 558 kts | 66° |
| 2026-05-07 14:22 | 41.00799 | 155.97015 | 33093 ft | 558 kts | 66° |
| 2026-05-07 14:23 | 41.03378 | 156.06670 | 33095 ft | 558 kts | 66° |
| 2026-05-07 14:23 | 41.05937 | 156.16292 | 33098 ft | 557 kts | 66° |
| 2026-05-07 14:24 | 41.08507 | 156.25990 | 33101 ft | 557 kts | 66° |
| 2026-05-07 14:24 | 41.11043 | 156.35597 | 33106 ft | 558 kts | 66° |
| 2026-05-07 14:25 | 41.13592 | 156.45294 | 33110 ft | 559 kts | 66° |
| 2026-05-07 14:25 | 41.16124 | 156.54964 | 33113 ft | 556 kts | 66° |
| 2026-05-07 14:26 | 41.18648 | 156.64653 | 33118 ft | 554 kts | 66° |
| 2026-05-07 14:26 | 41.21151 | 156.74284 | 33101 ft | 557 kts | 67° |
| 2026-05-07 14:27 | 41.23665 | 156.83997 | 33097 ft | 555 kts | 66° |
| 2026-05-07 14:27 | 41.26151 | 156.93642 | 33103 ft | 555 kts | 66° |
| 2026-05-07 14:28 | 41.28636 | 157.03320 | 33108 ft | 556 kts | 67° |
| 2026-05-07 14:28 | 41.31118 | 157.13032 | 33109 ft | 555 kts | 66° |
| 2026-05-07 14:29 | 41.33593 | 157.22751 | 33108 ft | 554 kts | 66° |
| 2026-05-07 14:29 | 41.36044 | 157.32414 | 33107 ft | 556 kts | 66° |
| 2026-05-07 14:30 | 41.38499 | 157.42137 | 33113 ft | 554 kts | 66° |
| 2026-05-07 14:30 | 41.40938 | 157.51836 | 33114 ft | 554 kts | 66° |
| 2026-05-07 14:31 | 41.43360 | 157.61504 | 33119 ft | 553 kts | 66° |
| 2026-05-07 14:31 | 41.45786 | 157.71225 | 33101 ft | 554 kts | 67° |
| 2026-05-07 14:32 | 41.48213 | 157.80995 | 33099 ft | 555 kts | 67° |
| 2026-05-07 14:32 | 41.50612 | 157.90694 | 33101 ft | 554 kts | 67° |
| 2026-05-07 14:33 | 41.53008 | 158.00417 | 33107 ft | 554 kts | 67° |
| 2026-05-07 14:33 | 41.55406 | 158.10191 | 33108 ft | 555 kts | 67° |
| 2026-05-07 14:34 | 41.57780 | 158.19911 | 33107 ft | 554 kts | 67° |
| 2026-05-07 14:34 | 41.60156 | 158.29672 | 33110 ft | 555 kts | 67° |
| 2026-05-07 14:35 | 41.62513 | 158.39401 | 33114 ft | 552 kts | 67° |
| 2026-05-07 14:35 | 41.64874 | 158.49187 | 33112 ft | 554 kts | 66° |
| 2026-05-07 14:36 | 41.67235 | 158.59010 | 33116 ft | 558 kts | 67° |
| 2026-05-07 14:36 | 41.69587 | 158.68848 | 33100 ft | 555 kts | 68° |
| 2026-05-07 14:37 | 41.71922 | 158.78648 | 33097 ft | 555 kts | 67° |
| 2026-05-07 14:37 | 41.75417 | 158.93404 | 33103 ft | 555 kts | 67° |
| 2026-05-07 14:38 | 41.77745 | 159.03284 | 33098 ft | 554 kts | 67° |
| 2026-05-07 14:38 | 41.80043 | 159.13080 | 33106 ft | 553 kts | 67° |
| 2026-05-07 14:39 | 41.82346 | 159.22937 | 33106 ft | 556 kts | 67° |
| 2026-05-07 14:39 | 41.84637 | 159.32793 | 33112 ft | 553 kts | 67° |
| 2026-05-07 14:40 | 41.86914 | 159.42624 | 33113 ft | 554 kts | 67° |
| 2026-05-07 14:40 | 41.89185 | 159.52472 | 33119 ft | 556 kts | 67° |
| 2026-05-07 14:41 | 41.91453 | 159.62361 | 33116 ft | 556 kts | 67° |
| 2026-05-07 14:41 | 41.93715 | 159.72260 | 33104 ft | 556 kts | 68° |
| 2026-05-07 14:42 | 41.95968 | 159.82167 | 33106 ft | 555 kts | 68° |
| 2026-05-07 14:42 | 41.98217 | 159.92096 | 33106 ft | 558 kts | 68° |
| 2026-05-07 14:43 | 42.00458 | 160.02000 | 33110 ft | 554 kts | 66° |
| 2026-05-07 14:43 | 42.02919 | 160.11833 | 33116 ft | 556 kts | 65° |
| 2026-05-07 14:44 | 42.05376 | 160.21613 | 33112 ft | 553 kts | 65° |
| 2026-05-07 14:44 | 42.07809 | 160.31367 | 33109 ft | 553 kts | 65° |
| 2026-05-07 14:45 | 42.10247 | 160.41196 | 33116 ft | 554 kts | 65° |
| 2026-05-07 14:45 | 42.12658 | 160.50978 | 33122 ft | 550 kts | 65° |
| 2026-05-07 14:46 | 42.15061 | 160.60763 | 33145 ft | 554 kts | 65° |
| 2026-05-07 14:46 | 42.17458 | 160.70583 | 33123 ft | 549 kts | 65° |
| 2026-05-07 14:47 | 42.19825 | 160.80309 | 33109 ft | 552 kts | 65° |
| 2026-05-07 14:47 | 42.22199 | 160.90112 | 33108 ft | 552 kts | 66° |
| 2026-05-07 14:48 | 42.24573 | 160.99960 | 33107 ft | 552 kts | 66° |
| 2026-05-07 14:48 | 42.26933 | 161.09793 | 33130 ft | 550 kts | 65° |
| 2026-05-07 14:49 | 42.29259 | 161.19528 | 33131 ft | 550 kts | 66° |
| 2026-05-07 14:49 | 42.31612 | 161.29410 | 33122 ft | 552 kts | 66° |
| 2026-05-07 14:50 | 42.33933 | 161.39208 | 33121 ft | 550 kts | 66° |
| 2026-05-07 14:50 | 42.36267 | 161.49098 | 33121 ft | 552 kts | 66° |
| 2026-05-07 14:51 | 42.38572 | 161.58920 | 33114 ft | 548 kts | 66° |
| 2026-05-07 14:51 | 42.40869 | 161.68732 | 33125 ft | 552 kts | 67° |
| 2026-05-07 14:52 | 42.43153 | 161.78549 | 33125 ft | 549 kts | 66° |
| 2026-05-07 14:52 | 42.45423 | 161.88344 | 33136 ft | 548 kts | 67° |
| 2026-05-07 14:53 | 42.47709 | 161.98244 | 33119 ft | 547 kts | 67° |
| 2026-05-07 14:53 | 42.49953 | 162.08009 | 33127 ft | 550 kts | 67° |
| 2026-05-07 14:54 | 42.52225 | 162.17940 | 33121 ft | 551 kts | 68° |
| 2026-05-07 14:54 | 42.54460 | 162.27760 | 33132 ft | 549 kts | 68° |
| 2026-05-07 14:55 | 42.56717 | 162.37709 | 33121 ft | 553 kts | 67° |
| 2026-05-07 14:55 | 42.58954 | 162.47626 | 33133 ft | 549 kts | 68° |
| 2026-05-07 14:56 | 42.61172 | 162.57497 | 33136 ft | 549 kts | 67° |
| 2026-05-07 14:56 | 42.63385 | 162.67390 | 33127 ft | 551 kts | 68° |
| 2026-05-07 14:57 | 42.65580 | 162.77254 | 33118 ft | 550 kts | 68° |
| 2026-05-07 14:57 | 42.67785 | 162.87203 | 33124 ft | 550 kts | 69° |
| 2026-05-07 14:58 | 42.69967 | 162.97098 | 33129 ft | 551 kts | 69° |
| 2026-05-07 14:58 | 42.72155 | 163.07069 | 33134 ft | 548 kts | 69° |
| 2026-05-07 14:59 | 42.74316 | 163.16954 | 33130 ft | 551 kts | 69° |
| 2026-05-07 14:59 | 42.76491 | 163.26950 | 33127 ft | 552 kts | 69° |
| 2026-05-07 15:00 | 42.78647 | 163.36908 | 33140 ft | 552 kts | 68° |
| 2026-05-07 15:00 | 42.80808 | 163.46938 | 33141 ft | 551 kts | 68° |
| 2026-05-07 15:01 | 42.82956 | 163.56953 | 33142 ft | 552 kts | 69° |
| 2026-05-07 15:01 | 42.85094 | 163.66969 | 33130 ft | 552 kts | 69° |
| 2026-05-07 15:02 | 42.87214 | 163.76952 | 33128 ft | 551 kts | 69° |
| 2026-05-07 15:02 | 42.89324 | 163.86932 | 33132 ft | 552 kts | 69° |
| 2026-05-07 15:03 | 42.91439 | 163.96982 | 33135 ft | 552 kts | 69° |
| 2026-05-07 15:03 | 42.93534 | 164.06995 | 33140 ft | 553 kts | 69° |
| 2026-05-07 15:04 | 42.95629 | 164.17049 | 33140 ft | 550 kts | 69° |
| 2026-05-07 15:04 | 42.97723 | 164.27141 | 33148 ft | 552 kts | 69° |
| 2026-05-07 15:05 | 42.99801 | 164.37213 | 33142 ft | 552 kts | 69° |
| 2026-05-07 15:05 | 43.01850 | 164.47195 | 33144 ft | 549 kts | 69° |
| 2026-05-07 15:06 | 43.03910 | 164.57278 | 33131 ft | 552 kts | 68° |
| 2026-05-07 15:06 | 43.05951 | 164.67317 | 33122 ft | 549 kts | 69° |
| 2026-05-07 15:07 | 43.07985 | 164.77373 | 33124 ft | 548 kts | 69° |
| 2026-05-07 15:07 | 43.09996 | 164.87366 | 33137 ft | 549 kts | 69° |
| 2026-05-07 15:08 | 43.12010 | 164.97423 | 33134 ft | 547 kts | 69° |
| 2026-05-07 15:08 | 43.14008 | 165.07445 | 33132 ft | 550 kts | 69° |
| 2026-05-07 15:09 | 43.15992 | 165.17459 | 33125 ft | 544 kts | 69° |
| 2026-05-07 15:09 | 43.17955 | 165.27406 | 33141 ft | 544 kts | 68° |
| 2026-05-07 15:10 | 43.19911 | 165.37373 | 33140 ft | 543 kts | 69° |
| 2026-05-07 15:10 | 43.21860 | 165.47354 | 33137 ft | 543 kts | 68° |
| 2026-05-07 15:11 | 43.23796 | 165.57317 | 33125 ft | 542 kts | 68° |
| 2026-05-07 15:11 | 43.25738 | 165.67363 | 33126 ft | 543 kts | 69° |
| 2026-05-07 15:12 | 43.27657 | 165.77339 | 33114 ft | 544 kts | 69° |
| 2026-05-07 15:12 | 43.29558 | 165.87279 | 33136 ft | 542 kts | 70° |
| 2026-05-07 15:13 | 43.31461 | 165.97276 | 33122 ft | 542 kts | 69° |
| 2026-05-07 15:13 | 43.33358 | 166.07298 | 33126 ft | 543 kts | 69° |
| 2026-05-07 15:14 | 43.35236 | 166.17270 | 33133 ft | 540 kts | 69° |
| 2026-05-07 15:14 | 43.37104 | 166.27239 | 33121 ft | 541 kts | 69° |
| 2026-05-07 15:15 | 43.38958 | 166.37196 | 33133 ft | 538 kts | 69° |
| 2026-05-07 15:15 | 43.40818 | 166.47214 | 33122 ft | 542 kts | 70° |
| 2026-05-07 15:16 | 43.42660 | 166.57202 | 33136 ft | 542 kts | 69° |
| 2026-05-07 15:16 | 43.44486 | 166.67166 | 33121 ft | 535 kts | 70° |
| 2026-05-07 15:17 | 43.46307 | 166.77144 | 33136 ft | 541 kts | 70° |
| 2026-05-07 15:17 | 43.48112 | 166.87093 | 33109 ft | 538 kts | 70° |
| 2026-05-07 15:18 | 43.49911 | 166.97054 | 33114 ft | 540 kts | 70° |
| 2026-05-07 15:18 | 43.51711 | 167.07083 | 33127 ft | 539 kts | 70° |
| 2026-05-07 15:19 | 43.53493 | 167.17067 | 33136 ft | 538 kts | 71° |
| 2026-05-07 15:19 | 43.55275 | 167.27097 | 33136 ft | 540 kts | 71° |
| 2026-05-07 15:20 | 43.57039 | 167.37089 | 33120 ft | 539 kts | 71° |
| 2026-05-07 15:20 | 43.58790 | 167.47066 | 33123 ft | 534 kts | 71° |
| 2026-05-07 15:21 | 43.60528 | 167.57011 | 33140 ft | 536 kts | 71° |
| 2026-05-07 15:21 | 43.62271 | 167.67042 | 33130 ft | 539 kts | 71° |
| 2026-05-07 15:22 | 43.63995 | 167.77033 | 33113 ft | 536 kts | 72° |
| 2026-05-07 15:22 | 43.65723 | 167.87089 | 33140 ft | 536 kts | 71° |
| 2026-05-07 15:23 | 43.67416 | 167.97008 | 33121 ft | 536 kts | 72° |
| 2026-05-07 15:23 | 43.69130 | 168.07097 | 33146 ft | 538 kts | 72° |
| 2026-05-07 15:24 | 43.70808 | 168.17047 | 33134 ft | 536 kts | 72° |
| 2026-05-07 15:24 | 43.72499 | 168.27115 | 33129 ft | 537 kts | 71° |
| 2026-05-07 15:25 | 43.74178 | 168.37174 | 33141 ft | 538 kts | 71° |
| 2026-05-07 15:25 | 43.75829 | 168.47133 | 33130 ft | 534 kts | 72° |
| 2026-05-07 15:26 | 43.77493 | 168.57210 | 33142 ft | 540 kts | 72° |
| 2026-05-07 15:26 | 43.79139 | 168.67256 | 33133 ft | 536 kts | 72° |
| 2026-05-07 15:27 | 43.80783 | 168.77341 | 33129 ft | 536 kts | 72° |
| 2026-05-07 15:27 | 43.82399 | 168.87312 | 33130 ft | 537 kts | 72° |
| 2026-05-07 15:28 | 43.84018 | 168.97368 | 33118 ft | 533 kts | 72° |
| 2026-05-07 15:28 | 43.85624 | 169.07387 | 33123 ft | 536 kts | 72° |
| 2026-05-07 15:29 | 43.87227 | 169.17459 | 33124 ft | 539 kts | 72° |
| 2026-05-07 15:29 | 43.88818 | 169.27521 | 33111 ft | 533 kts | 72° |
| 2026-05-07 15:30 | 43.90398 | 169.37561 | 33129 ft | 539 kts | 72° |
| 2026-05-07 15:30 | 43.91974 | 169.47659 | 33122 ft | 535 kts | 72° |
| 2026-05-07 15:31 | 43.93536 | 169.57713 | 33129 ft | 537 kts | 72° |
| 2026-05-07 15:31 | 43.95091 | 169.67790 | 33115 ft | 536 kts | 73° |
| 2026-05-07 15:32 | 43.96642 | 169.77887 | 33117 ft | 540 kts | 73° |
| 2026-05-07 15:32 | 43.98190 | 169.88040 | 33117 ft | 537 kts | 73° |
| 2026-05-07 15:33 | 43.99636 | 169.98184 | 33116 ft | 542 kts | 79° |
| 2026-05-07 15:33 | 44.00259 | 170.08647 | 33112 ft | 544 kts | 82° |
| 2026-05-07 15:34 | 44.00753 | 170.19072 | 33119 ft | 542 kts | 82° |
| 2026-05-07 15:34 | 44.01214 | 170.29485 | 33135 ft | 542 kts | 82° |
| 2026-05-07 15:35 | 44.01657 | 170.39980 | 33137 ft | 542 kts | 83° |
| 2026-05-07 15:35 | 44.02079 | 170.50362 | 33135 ft | 542 kts | 82° |
| 2026-05-07 15:36 | 44.02486 | 170.60721 | 33140 ft | 542 kts | 82° |
| 2026-05-07 15:36 | 44.02885 | 170.71168 | 33126 ft | 541 kts | 83° |
| 2026-05-07 15:37 | 44.03273 | 170.81596 | 33127 ft | 541 kts | 83° |
| 2026-05-07 15:37 | 44.03648 | 170.91968 | 33126 ft | 541 kts | 83° |
| 2026-05-07 15:38 | 44.04015 | 171.02382 | 33133 ft | 540 kts | 83° |
| 2026-05-07 15:38 | 44.04372 | 171.12781 | 33131 ft | 541 kts | 83° |
| 2026-05-07 15:39 | 44.04720 | 171.23221 | 33135 ft | 541 kts | 83° |
| 2026-05-07 15:39 | 44.05059 | 171.33643 | 33133 ft | 542 kts | 83° |
| 2026-05-07 15:40 | 44.05388 | 171.44093 | 33137 ft | 540 kts | 83° |
| 2026-05-07 15:40 | 44.05705 | 171.54446 | 33140 ft | 540 kts | 83° |
| 2026-05-07 15:41 | 44.06015 | 171.64882 | 33139 ft | 541 kts | 83° |
| 2026-05-07 15:41 | 44.06316 | 171.75278 | 33125 ft | 543 kts | 84° |
| 2026-05-07 15:42 | 44.06606 | 171.85710 | 33128 ft | 541 kts | 84° |
| 2026-05-07 15:42 | 44.06887 | 171.96130 | 33129 ft | 541 kts | 84° |
| 2026-05-07 15:43 | 44.07160 | 172.06570 | 33128 ft | 543 kts | 84° |
| 2026-05-07 15:43 | 44.07423 | 172.17052 | 33134 ft | 542 kts | 84° |
| 2026-05-07 15:44 | 44.07676 | 172.27472 | 33134 ft | 542 kts | 84° |
| 2026-05-07 15:44 | 44.07919 | 172.37906 | 33141 ft | 541 kts | 84° |
| 2026-05-07 15:45 | 44.08154 | 172.48373 | 33137 ft | 543 kts | 84° |
| 2026-05-07 15:45 | 44.08379 | 172.58830 | 33132 ft | 543 kts | 84° |
| 2026-05-07 15:46 | 44.08698 | 172.74489 | 33126 ft | 545 kts | 85° |
| 2026-05-07 15:47 | 44.08901 | 172.85037 | 33127 ft | 543 kts | 84° |
| 2026-05-07 15:47 | 44.09091 | 172.95467 | 33129 ft | 545 kts | 84° |
| 2026-05-07 15:48 | 44.09273 | 173.05925 | 33128 ft | 542 kts | 84° |
| 2026-05-07 15:48 | 44.09446 | 173.16419 | 33127 ft | 544 kts | 84° |
| 2026-05-07 15:49 | 44.09609 | 173.26907 | 33127 ft | 544 kts | 84° |
| 2026-05-07 15:49 | 44.09764 | 173.37450 | 33134 ft | 546 kts | 84° |
| 2026-05-07 15:50 | 44.09908 | 173.47977 | 33128 ft | 546 kts | 84° |
| 2026-05-07 15:50 | 44.10042 | 173.58443 | 33145 ft | 546 kts | 84° |
| 2026-05-07 15:51 | 44.10168 | 173.69040 | 33132 ft | 546 kts | 85° |
| 2026-05-07 15:51 | 44.10283 | 173.79523 | 33138 ft | 547 kts | 85° |
| 2026-05-07 15:52 | 44.10389 | 173.90047 | 33135 ft | 547 kts | 85° |
| 2026-05-07 15:52 | 44.10485 | 174.00615 | 33141 ft | 546 kts | 85° |
| 2026-05-07 15:53 | 44.10572 | 174.11136 | 33133 ft | 547 kts | 85° |
| 2026-05-07 15:53 | 44.10648 | 174.21690 | 33133 ft | 546 kts | 85° |
| 2026-05-07 15:54 | 44.10715 | 174.32191 | 33135 ft | 546 kts | 85° |
| 2026-05-07 15:54 | 44.10773 | 174.42792 | 33134 ft | 547 kts | 85° |
| 2026-05-07 15:55 | 44.10821 | 174.53304 | 33133 ft | 548 kts | 85° |
| 2026-05-07 15:55 | 44.10859 | 174.63872 | 33134 ft | 548 kts | 85° |
| 2026-05-07 15:56 | 44.10888 | 174.74495 | 33120 ft | 547 kts | 86° |
| 2026-05-07 15:56 | 44.10907 | 174.85077 | 33124 ft | 549 kts | 86° |
| 2026-05-07 15:57 | 44.10916 | 174.95627 | 33121 ft | 549 kts | 86° |
| 2026-05-07 15:57 | 44.10915 | 175.06220 | 33116 ft | 551 kts | 86° |
| 2026-05-07 15:58 | 44.10903 | 175.16888 | 33117 ft | 549 kts | 85° |
| 2026-05-07 15:58 | 44.10883 | 175.27458 | 33116 ft | 550 kts | 86° |
| 2026-05-07 15:59 | 44.10853 | 175.38069 | 33129 ft | 550 kts | 85° |
| 2026-05-07 15:59 | 44.10813 | 175.48691 | 33123 ft | 551 kts | 86° |
| 2026-05-07 16:00 | 44.10763 | 175.59334 | 33128 ft | 552 kts | 86° |
| 2026-05-07 16:00 | 44.10704 | 175.69917 | 33110 ft | 550 kts | 86° |
| 2026-05-07 16:01 | 44.10634 | 175.80577 | 33116 ft | 552 kts | 86° |
| 2026-05-07 16:01 | 44.10553 | 175.91202 | 33117 ft | 551 kts | 86° |
| 2026-05-07 16:02 | 44.10464 | 176.01805 | 33118 ft | 550 kts | 86° |
| 2026-05-07 16:02 | 44.10365 | 176.12410 | 33117 ft | 551 kts | 86° |
| 2026-05-07 16:03 | 44.10256 | 176.23007 | 33121 ft | 551 kts | 86° |
| 2026-05-07 16:03 | 44.10137 | 176.33675 | 33120 ft | 552 kts | 86° |
| 2026-05-07 16:04 | 44.10007 | 176.44312 | 33123 ft | 550 kts | 86° |
| 2026-05-07 16:04 | 44.09869 | 176.54929 | 33129 ft | 552 kts | 86° |
| 2026-05-07 16:05 | 44.09720 | 176.65570 | 33122 ft | 552 kts | 86° |
| 2026-05-07 16:05 | 44.09562 | 176.76215 | 33118 ft | 555 kts | 86° |
| 2026-05-07 16:06 | 44.09391 | 176.86903 | 33115 ft | 552 kts | 87° |
| 2026-05-07 16:06 | 44.09213 | 176.97551 | 33120 ft | 554 kts | 87° |
| 2026-05-07 16:07 | 44.09024 | 177.08229 | 33123 ft | 552 kts | 86° |
| 2026-05-07 16:07 | 44.08825 | 177.18933 | 33112 ft | 554 kts | 86° |
| 2026-05-07 16:08 | 44.08616 | 177.29625 | 33123 ft | 556 kts | 86° |
| 2026-05-07 16:08 | 44.08397 | 177.40285 | 33114 ft | 554 kts | 86° |
| 2026-05-07 16:09 | 44.08168 | 177.50983 | 33116 ft | 553 kts | 86° |
| 2026-05-07 16:09 | 44.07930 | 177.61616 | 33111 ft | 554 kts | 86° |
| 2026-05-07 16:10 | 44.07681 | 177.72295 | 33100 ft | 555 kts | 87° |
| 2026-05-07 16:10 | 44.07423 | 177.82979 | 33106 ft | 555 kts | 87° |
| 2026-05-07 16:11 | 44.07153 | 177.93744 | 33099 ft | 557 kts | 87° |
| 2026-05-07 16:11 | 44.06871 | 178.04463 | 33102 ft | 555 kts | 86° |
| 2026-05-07 16:12 | 44.06582 | 178.15184 | 33097 ft | 557 kts | 87° |
| 2026-05-07 16:12 | 44.06283 | 178.25862 | 33099 ft | 558 kts | 87° |
| 2026-05-07 16:13 | 44.05970 | 178.36662 | 33099 ft | 558 kts | 87° |
| 2026-05-07 16:13 | 44.05650 | 178.47403 | 33099 ft | 558 kts | 87° |
| 2026-05-07 16:14 | 44.05319 | 178.58115 | 33096 ft | 559 kts | 86° |
| 2026-05-07 16:14 | 44.04978 | 178.68872 | 33081 ft | 558 kts | 88° |
| 2026-05-07 16:15 | 44.04627 | 178.79633 | 33079 ft | 561 kts | 87° |
| 2026-05-07 16:15 | 44.04265 | 178.90392 | 33081 ft | 560 kts | 88° |
| 2026-05-07 16:16 | 44.03891 | 179.01202 | 33081 ft | 562 kts | 87° |
| 2026-05-07 16:16 | 44.03508 | 179.11978 | 33084 ft | 560 kts | 87° |
| 2026-05-07 16:17 | 44.03115 | 179.22772 | 33086 ft | 564 kts | 88° |
| 2026-05-07 16:17 | 44.02708 | 179.33612 | 33088 ft | 563 kts | 87° |
| 2026-05-07 16:18 | 44.02293 | 179.44441 | 33090 ft | 563 kts | 87° |
| 2026-05-07 16:18 | 44.01868 | 179.55258 | 33089 ft | 563 kts | 88° |
| 2026-05-07 16:19 | 44.01428 | 179.66168 | 33089 ft | 565 kts | 88° |
| 2026-05-07 16:19 | 44.00981 | 179.77017 | 33080 ft | 566 kts | 88° |
| 2026-05-07 16:20 | 44.00524 | 179.87866 | 33084 ft | 566 kts | 88° |
| 2026-05-07 16:20 | 44.00049 | 179.98686 | 33085 ft | 565 kts | 88° |
| 2026-05-07 16:21 | 43.99461 | -179.90439 | 33081 ft | 566 kts | 89° |
| 2026-05-07 16:21 | 43.98850 | -179.79561 | 33082 ft | 567 kts | 89° |
| 2026-05-07 16:22 | 43.98228 | -179.68698 | 33081 ft | 566 kts | 89° |
| 2026-05-07 16:22 | 43.97595 | -179.57826 | 33077 ft | 568 kts | 89° |
| 2026-05-07 16:23 | 43.96951 | -179.46976 | 33071 ft | 567 kts | 90° |
| 2026-05-07 16:23 | 43.96292 | -179.36041 | 33071 ft | 567 kts | 89° |
| 2026-05-07 16:24 | 43.95629 | -179.25211 | 33067 ft | 568 kts | 90° |
| 2026-05-07 16:24 | 43.94952 | -179.14313 | 33067 ft | 569 kts | 90° |
| 2026-05-07 16:25 | 43.94266 | -179.03473 | 33074 ft | 568 kts | 89° |
| 2026-05-07 16:25 | 43.93566 | -178.92558 | 33087 ft | 569 kts | 90° |
| 2026-05-07 16:26 | 43.92860 | -178.81714 | 33083 ft | 568 kts | 90° |
| 2026-05-07 16:26 | 43.92140 | -178.70808 | 33079 ft | 572 kts | 89° |
| 2026-05-07 16:27 | 43.91407 | -178.59894 | 33079 ft | 570 kts | 89° |
| 2026-05-07 16:27 | 43.90670 | -178.49036 | 33071 ft | 570 kts | 90° |
| 2026-05-07 16:28 | 43.89915 | -178.38089 | 33049 ft | 571 kts | 90° |
| 2026-05-07 16:28 | 43.89151 | -178.27181 | 33042 ft | 572 kts | 90° |
| 2026-05-07 16:29 | 43.88377 | -178.16277 | 33042 ft | 571 kts | 90° |
| 2026-05-07 16:29 | 43.87587 | -178.05287 | 33037 ft | 570 kts | 90° |
| 2026-05-07 16:30 | 43.86800 | -177.94467 | 33033 ft | 573 kts | 90° |
| 2026-05-07 16:30 | 43.85990 | -177.83501 | 33038 ft | 571 kts | 90° |
| 2026-05-07 16:31 | 43.85171 | -177.72565 | 33035 ft | 572 kts | 90° |
| 2026-05-07 16:31 | 43.84346 | -177.61671 | 33033 ft | 572 kts | 90° |
| 2026-05-07 16:32 | 43.83503 | -177.50690 | 33039 ft | 573 kts | 90° |
| 2026-05-07 16:32 | 43.82654 | -177.39764 | 33042 ft | 573 kts | 90° |
| 2026-05-07 16:33 | 43.81793 | -177.28838 | 33033 ft | 573 kts | 91° |
| 2026-05-07 16:33 | 43.80922 | -177.17899 | 33032 ft | 573 kts | 91° |
| 2026-05-07 16:34 | 43.80045 | -177.07028 | 33030 ft | 576 kts | 91° |
| 2026-05-07 16:34 | 43.79153 | -176.96097 | 33036 ft | 573 kts | 91° |
| 2026-05-07 16:35 | 43.78246 | -176.85123 | 33033 ft | 575 kts | 91° |
| 2026-05-07 16:35 | 43.77329 | -176.74144 | 33037 ft | 575 kts | 91° |
| 2026-05-07 16:36 | 43.76408 | -176.63260 | 33039 ft | 575 kts | 91° |
| 2026-05-07 16:36 | 43.75470 | -176.52295 | 33037 ft | 579 kts | 91° |
| 2026-05-07 16:37 | 43.74521 | -176.41334 | 33038 ft | 577 kts | 91° |
| 2026-05-07 16:37 | 43.73559 | -176.30336 | 33017 ft | 577 kts | 92° |
| 2026-05-07 16:38 | 43.72583 | -176.19304 | 33016 ft | 578 kts | 92° |
| 2026-05-07 16:38 | 43.71600 | -176.08336 | 33017 ft | 576 kts | 92° |
| 2026-05-07 16:39 | 43.70613 | -175.97423 | 33015 ft | 578 kts | 92° |
| 2026-05-07 16:39 | 43.69603 | -175.86383 | 33016 ft | 578 kts | 92° |
| 2026-05-07 16:40 | 43.68594 | -175.75470 | 33014 ft | 579 kts | 92° |
| 2026-05-07 16:40 | 43.67563 | -175.64439 | 33019 ft | 577 kts | 92° |
| 2026-05-07 16:41 | 43.66527 | -175.53465 | 33018 ft | 582 kts | 92° |
| 2026-05-07 16:41 | 43.65485 | -175.42555 | 33011 ft | 576 kts | 92° |
| 2026-05-07 16:42 | 43.64422 | -175.31517 | 33004 ft | 580 kts | 93° |
| 2026-05-07 16:42 | 43.63360 | -175.20612 | 33006 ft | 577 kts | 93° |
| 2026-05-07 16:43 | 43.62275 | -175.09593 | 33003 ft | 578 kts | 93° |
| 2026-05-07 16:43 | 43.61191 | -174.98688 | 33002 ft | 579 kts | 93° |
| 2026-05-07 16:44 | 43.60087 | -174.87686 | 33012 ft | 578 kts | 93° |
| 2026-05-07 16:44 | 43.58978 | -174.76747 | 33007 ft | 579 kts | 93° |
| 2026-05-07 16:45 | 43.57859 | -174.65825 | 33009 ft | 578 kts | 92° |
| 2026-05-07 16:45 | 43.56727 | -174.54863 | 33009 ft | 578 kts | 93° |
| 2026-05-07 16:46 | 43.55588 | -174.43950 | 33008 ft | 577 kts | 93° |
| 2026-05-07 16:46 | 43.54445 | -174.33099 | 33004 ft | 580 kts | 94° |
| 2026-05-07 16:47 | 43.53277 | -174.22116 | 32991 ft | 577 kts | 94° |
| 2026-05-07 16:47 | 43.52105 | -174.11188 | 32995 ft | 578 kts | 94° |
| 2026-05-07 16:48 | 43.50923 | -174.00279 | 32988 ft | 578 kts | 94° |
| 2026-05-07 16:48 | 43.49732 | -173.89388 | 32994 ft | 577 kts | 94° |
| 2026-05-07 16:49 | 43.48526 | -173.78441 | 32986 ft | 581 kts | 94° |
| 2026-05-07 16:49 | 43.47315 | -173.67577 | 32990 ft | 578 kts | 94° |
| 2026-05-07 16:50 | 43.46091 | -173.56673 | 32991 ft | 577 kts | 94° |
| 2026-05-07 16:50 | 43.44856 | -173.45767 | 32989 ft | 577 kts | 94° |
| 2026-05-07 16:51 | 43.43621 | -173.34963 | 32975 ft | 577 kts | 94° |
| 2026-05-07 16:51 | 43.42364 | -173.24051 | 32967 ft | 579 kts | 95° |
| 2026-05-07 16:52 | 43.41101 | -173.13191 | 32963 ft | 576 kts | 94° |
| 2026-05-07 16:52 | 43.39819 | -173.02261 | 32962 ft | 579 kts | 95° |
| 2026-05-07 16:53 | 43.38537 | -172.91426 | 32969 ft | 578 kts | 95° |
| 2026-05-07 16:53 | 43.37244 | -172.80606 | 32971 ft | 580 kts | 95° |
| 2026-05-07 16:54 | 43.35933 | -172.69731 | 32963 ft | 577 kts | 95° |
| 2026-05-07 16:54 | 43.34618 | -172.58911 | 32979 ft | 577 kts | 95° |
| 2026-05-07 16:55 | 43.33295 | -172.48068 | 32962 ft | 577 kts | 95° |
| 2026-05-07 16:55 | 43.31957 | -172.37210 | 32968 ft | 578 kts | 95° |
| 2026-05-07 16:56 | 43.30617 | -172.26402 | 32960 ft | 578 kts | 96° |
| 2026-05-07 16:56 | 43.28590 | -172.10225 | 32929 ft | 578 kts | 96° |
| 2026-05-07 16:57 | 43.27227 | -171.99420 | 32934 ft | 576 kts | 96° |
| 2026-05-07 16:57 | 43.25834 | -171.88559 | 32944 ft | 579 kts | 96° |
| 2026-05-07 16:58 | 43.24464 | -171.77818 | 32935 ft | 577 kts | 96° |
| 2026-05-07 16:58 | 43.23071 | -171.66978 | 32933 ft | 578 kts | 96° |
| 2026-05-07 16:59 | 43.21660 | -171.56227 | 32954 ft | 575 kts | 96° |
| 2026-05-07 16:59 | 43.20245 | -171.45509 | 32971 ft | 574 kts | 96° |
| 2026-05-07 17:00 | 43.18804 | -171.34799 | 32961 ft | 575 kts | 97° |
| 2026-05-07 17:00 | 43.17353 | -171.24031 | 32900 ft | 574 kts | 97° |
| 2026-05-07 17:01 | 43.15893 | -171.13354 | 32928 ft | 573 kts | 97° |
| 2026-05-07 17:01 | 43.14466 | -171.02658 | 32896 ft | 573 kts | 97° |
| 2026-05-07 17:02 | 43.13011 | -170.92006 | 32930 ft | 574 kts | 97° |
| 2026-05-07 17:02 | 43.11549 | -170.81337 | 32953 ft | 574 kts | 98° |
| 2026-05-07 17:03 | 43.10067 | -170.70660 | 32968 ft | 574 kts | 97° |
| 2026-05-07 17:03 | 43.08572 | -170.59927 | 32940 ft | 572 kts | 97° |
| 2026-05-07 17:04 | 43.07074 | -170.49260 | 32962 ft | 575 kts | 97° |
| 2026-05-07 17:04 | 43.05555 | -170.38585 | 32951 ft | 574 kts | 98° |
| 2026-05-07 17:05 | 43.04059 | -170.27969 | 32925 ft | 572 kts | 99° |
| 2026-05-07 17:05 | 43.02527 | -170.17322 | 32904 ft | 572 kts | 99° |
| 2026-05-07 17:06 | 43.00971 | -170.06743 | 32897 ft | 572 kts | 99° |
| 2026-05-07 17:06 | 42.99486 | -169.96071 | 32908 ft | 567 kts | 94° |
| 2026-05-07 17:07 | 42.98927 | -169.85405 | 32901 ft | 567 kts | 90° |
| 2026-05-07 17:07 | 42.98412 | -169.74674 | 32885 ft | 567 kts | 90° |
| 2026-05-07 17:08 | 42.97874 | -169.64043 | 32907 ft | 566 kts | 90° |
| 2026-05-07 17:08 | 42.97281 | -169.53371 | 32903 ft | 564 kts | 91° |
| 2026-05-07 17:09 | 42.96662 | -169.42667 | 32872 ft | 565 kts | 91° |
| 2026-05-07 17:09 | 42.96023 | -169.32024 | 32909 ft | 564 kts | 92° |
| 2026-05-07 17:10 | 42.95376 | -169.21439 | 32895 ft | 565 kts | 92° |
| 2026-05-07 17:10 | 42.94712 | -169.10776 | 32891 ft | 565 kts | 92° |
| 2026-05-07 17:11 | 42.94039 | -169.00166 | 32901 ft | 564 kts | 92° |
| 2026-05-07 17:11 | 42.93357 | -168.89584 | 32886 ft | 563 kts | 92° |
| 2026-05-07 17:12 | 42.92664 | -168.78975 | 32903 ft | 563 kts | 92° |
| 2026-05-07 17:12 | 42.91958 | -168.68349 | 32910 ft | 563 kts | 92° |
| 2026-05-07 17:13 | 42.91249 | -168.57820 | 32890 ft | 561 kts | 92° |
| 2026-05-07 17:13 | 42.90525 | -168.47205 | 32893 ft | 562 kts | 92° |
| 2026-05-07 17:14 | 42.89797 | -168.36688 | 32904 ft | 562 kts | 93° |
| 2026-05-07 17:14 | 42.89051 | -168.26054 | 32872 ft | 563 kts | 93° |
| 2026-05-07 17:15 | 42.88303 | -168.15532 | 32900 ft | 563 kts | 94° |
| 2026-05-07 17:15 | 42.87537 | -168.04898 | 32876 ft | 563 kts | 93° |
| 2026-05-07 17:16 | 42.86769 | -167.94377 | 32897 ft | 562 kts | 94° |
| 2026-05-07 17:16 | 42.85988 | -167.83812 | 32881 ft | 563 kts | 94° |
| 2026-05-07 17:17 | 42.85199 | -167.73280 | 32895 ft | 561 kts | 94° |
| 2026-05-07 17:17 | 42.84393 | -167.62645 | 32868 ft | 564 kts | 94° |
| 2026-05-07 17:18 | 42.83583 | -167.52084 | 32892 ft | 563 kts | 94° |
| 2026-05-07 17:18 | 42.82765 | -167.41553 | 32882 ft | 564 kts | 94° |
| 2026-05-07 17:19 | 42.81931 | -167.30948 | 32860 ft | 563 kts | 95° |
| 2026-05-07 17:19 | 42.81094 | -167.20422 | 32883 ft | 563 kts | 95° |
| 2026-05-07 17:20 | 42.80242 | -167.09840 | 32881 ft | 561 kts | 95° |
| 2026-05-07 17:20 | 42.79385 | -166.99312 | 32875 ft | 562 kts | 95° |
| 2026-05-07 17:21 | 42.78520 | -166.88815 | 32874 ft | 563 kts | 95° |
| 2026-05-07 17:21 | 42.77641 | -166.78267 | 32861 ft | 562 kts | 95° |
| 2026-05-07 17:22 | 42.76752 | -166.67711 | 32876 ft | 563 kts | 95° |
| 2026-05-07 17:22 | 42.75858 | -166.57213 | 32876 ft | 562 kts | 95° |
| 2026-05-07 17:23 | 42.74946 | -166.46635 | 32864 ft | 563 kts | 95° |
| 2026-05-07 17:23 | 42.74030 | -166.36112 | 32874 ft | 562 kts | 95° |
| 2026-05-07 17:24 | 42.73103 | -166.25584 | 32852 ft | 563 kts | 96° |
| 2026-05-07 17:24 | 42.72168 | -166.15070 | 32860 ft | 562 kts | 96° |
| 2026-05-07 17:25 | 42.71219 | -166.04520 | 32885 ft | 561 kts | 96° |
| 2026-05-07 17:25 | 42.70266 | -165.94025 | 32837 ft | 560 kts | 96° |
| 2026-05-07 17:26 | 42.69304 | -165.83551 | 32851 ft | 561 kts | 96° |
| 2026-05-07 17:26 | 42.68332 | -165.73059 | 32830 ft | 561 kts | 96° |
| 2026-05-07 17:27 | 42.67351 | -165.62596 | 32851 ft | 560 kts | 96° |
| 2026-05-07 17:27 | 42.66360 | -165.52118 | 32839 ft | 561 kts | 96° |
| 2026-05-07 17:28 | 42.65363 | -165.41681 | 32838 ft | 563 kts | 96° |
| 2026-05-07 17:28 | 42.64348 | -165.31165 | 32866 ft | 562 kts | 97° |
| 2026-05-07 17:29 | 42.63330 | -165.20714 | 32859 ft | 560 kts | 97° |
| 2026-05-07 17:29 | 42.62305 | -165.10298 | 32862 ft | 561 kts | 97° |
| 2026-05-07 17:30 | 42.61266 | -164.99832 | 32878 ft | 560 kts | 97° |
| 2026-05-07 17:30 | 42.60210 | -164.89302 | 32845 ft | 562 kts | 97° |
| 2026-05-07 17:31 | 42.59158 | -164.78911 | 32846 ft | 559 kts | 97° |
| 2026-05-07 17:31 | 42.58093 | -164.68484 | 32863 ft | 561 kts | 98° |
| 2026-05-07 17:32 | 42.57023 | -164.58101 | 32827 ft | 557 kts | 97° |
| 2026-05-07 17:32 | 42.55938 | -164.47673 | 32843 ft | 558 kts | 97° |
| 2026-05-07 17:33 | 42.54853 | -164.37334 | 32841 ft | 557 kts | 97° |
| 2026-05-07 17:33 | 42.53752 | -164.26944 | 32837 ft | 558 kts | 98° |
| 2026-05-07 17:34 | 42.52648 | -164.16605 | 32811 ft | 559 kts | 98° |
| 2026-05-07 17:34 | 42.51534 | -164.06276 | 32837 ft | 558 kts | 98° |
| 2026-05-07 17:35 | 42.50402 | -163.95857 | 32828 ft | 557 kts | 98° |
| 2026-05-07 17:35 | 42.49271 | -163.85551 | 32815 ft | 560 kts | 98° |
| 2026-05-07 17:36 | 42.48118 | -163.75133 | 32820 ft | 559 kts | 98° |
| 2026-05-07 17:36 | 42.46962 | -163.64766 | 32813 ft | 557 kts | 98° |
| 2026-05-07 17:37 | 42.45802 | -163.54454 | 32826 ft | 556 kts | 98° |
| 2026-05-07 17:37 | 42.44626 | -163.44081 | 32811 ft | 558 kts | 98° |
| 2026-05-07 17:38 | 42.43445 | -163.33754 | 32809 ft | 557 kts | 99° |
| 2026-05-07 17:38 | 42.42246 | -163.23360 | 32788 ft | 558 kts | 99° |
| 2026-05-07 17:39 | 42.41044 | -163.13025 | 32800 ft | 559 kts | 99° |
| 2026-05-07 17:39 | 42.39829 | -163.02655 | 32792 ft | 559 kts | 99° |
| 2026-05-07 17:40 | 42.38612 | -162.92357 | 32813 ft | 557 kts | 99° |
| 2026-05-07 17:40 | 42.37379 | -162.81998 | 32773 ft | 558 kts | 99° |
| 2026-05-07 17:41 | 42.36148 | -162.71741 | 32801 ft | 558 kts | 99° |
| 2026-05-07 17:41 | 42.34894 | -162.61377 | 32778 ft | 560 kts | 99° |
| 2026-05-07 17:42 | 42.33640 | -162.51096 | 32802 ft | 559 kts | 99° |
| 2026-05-07 17:42 | 42.32362 | -162.40691 | 32783 ft | 559 kts | 99° |
| 2026-05-07 17:43 | 42.31088 | -162.30400 | 32770 ft | 557 kts | 101° |
| 2026-05-07 17:43 | 42.29810 | -162.20158 | 32739 ft | 556 kts | 101° |
| 2026-05-07 17:44 | 42.28516 | -162.09872 | 32772 ft | 559 kts | 100° |
| 2026-05-07 17:44 | 42.27211 | -161.99553 | 32750 ft | 557 kts | 101° |
| 2026-05-07 17:45 | 42.25906 | -161.89316 | 32784 ft | 556 kts | 100° |
| 2026-05-07 17:45 | 42.24587 | -161.79040 | 32763 ft | 556 kts | 101° |
| 2026-05-07 17:46 | 42.23260 | -161.68793 | 32775 ft | 557 kts | 101° |
| 2026-05-07 17:46 | 42.21927 | -161.58583 | 32757 ft | 558 kts | 101° |
| 2026-05-07 17:47 | 42.20576 | -161.48314 | 32777 ft | 556 kts | 101° |
| 2026-05-07 17:47 | 42.19213 | -161.38014 | 32778 ft | 558 kts | 101° |
| 2026-05-07 17:48 | 42.17857 | -161.27840 | 32776 ft | 556 kts | 102° |
| 2026-05-07 17:48 | 42.16482 | -161.17601 | 32768 ft | 556 kts | 102° |
| 2026-05-07 17:49 | 42.15102 | -161.07388 | 32773 ft | 556 kts | 102° |
| 2026-05-07 17:49 | 42.13705 | -160.97133 | 32762 ft | 558 kts | 102° |
| 2026-05-07 17:50 | 42.12310 | -160.86951 | 32760 ft | 559 kts | 102° |
| 2026-05-07 17:50 | 42.10887 | -160.76637 | 32742 ft | 556 kts | 102° |
| 2026-05-07 17:51 | 42.09470 | -160.66449 | 32763 ft | 561 kts | 102° |
| 2026-05-07 17:51 | 42.08032 | -160.56165 | 32777 ft | 556 kts | 102° |
| 2026-05-07 17:52 | 42.06594 | -160.45958 | 32775 ft | 561 kts | 102° |
| 2026-05-07 17:52 | 42.05133 | -160.35654 | 32781 ft | 561 kts | 102° |
| 2026-05-07 17:53 | 42.03676 | -160.25421 | 32759 ft | 558 kts | 103° |
| 2026-05-07 17:53 | 42.02205 | -160.15199 | 32752 ft | 559 kts | 103° |
| 2026-05-07 17:54 | 42.00729 | -160.04913 | 32753 ft | 561 kts | 103° |
| 2026-05-07 17:54 | 41.99392 | -159.94634 | 32736 ft | 561 kts | 96° |
| 2026-05-07 17:55 | 41.98904 | -159.84198 | 32743 ft | 561 kts | 94° |
| 2026-05-07 17:55 | 41.98402 | -159.73804 | 32748 ft | 560 kts | 94° |
| 2026-05-07 17:56 | 41.97851 | -159.63393 | 32754 ft | 559 kts | 95° |
| 2026-05-07 17:56 | 41.97259 | -159.53003 | 32759 ft | 560 kts | 95° |
| 2026-05-07 17:57 | 41.96754 | -159.44341 | 32763 ft | 558 kts | 95° |
| 2026-05-07 17:57 | 41.96030 | -159.32222 | 32754 ft | 560 kts | 96° |
| 2026-05-07 17:58 | 41.95394 | -159.21881 | 32730 ft | 555 kts | 96° |
| 2026-05-07 17:58 | 41.94749 | -159.11569 | 32741 ft | 558 kts | 96° |
| 2026-05-07 17:59 | 41.94093 | -159.01251 | 32754 ft | 557 kts | 96° |
| 2026-05-07 17:59 | 41.93427 | -158.90939 | 32745 ft | 555 kts | 96° |
| 2026-05-07 18:00 | 41.92748 | -158.80559 | 32762 ft | 558 kts | 96° |
| 2026-05-07 18:00 | 41.92065 | -158.70270 | 32748 ft | 556 kts | 96° |
| 2026-05-07 18:01 | 41.91372 | -158.59972 | 32757 ft | 556 kts | 96° |
| 2026-05-07 18:01 | 41.90670 | -158.49649 | 32759 ft | 556 kts | 96° |
| 2026-05-07 18:02 | 41.89585 | -158.34149 | 32755 ft | 555 kts | 97° |
| 2026-05-07 18:03 | 41.88853 | -158.23871 | 32747 ft | 557 kts | 97° |
| 2026-05-07 18:03 | 41.88126 | -158.13588 | 32741 ft | 556 kts | 97° |
| 2026-05-07 18:04 | 41.87383 | -158.03284 | 32752 ft | 554 kts | 97° |
| 2026-05-07 18:04 | 41.86631 | -157.92992 | 32769 ft | 554 kts | 97° |
| 2026-05-07 18:05 | 41.85870 | -157.82748 | 32761 ft | 553 kts | 98° |
| 2026-05-07 18:05 | 41.85110 | -157.72557 | 32769 ft | 554 kts | 97° |
| 2026-05-07 18:06 | 41.84332 | -157.62302 | 32770 ft | 555 kts | 98° |
| 2026-05-07 18:06 | 41.83546 | -157.52023 | 32764 ft | 553 kts | 97° |
| 2026-05-07 18:07 | 41.82744 | -157.41827 | 32772 ft | 552 kts | 97° |
| 2026-05-07 18:07 | 41.81936 | -157.31609 | 32738 ft | 551 kts | 98° |
| 2026-05-07 18:08 | 41.81132 | -157.21446 | 32739 ft | 551 kts | 98° |
| 2026-05-07 18:08 | 41.80320 | -157.11269 | 32753 ft | 553 kts | 98° |
| 2026-05-07 18:09 | 41.79498 | -157.01092 | 32748 ft | 551 kts | 98° |
| 2026-05-07 18:09 | 41.78658 | -156.90926 | 32752 ft | 550 kts | 98° |
| 2026-05-07 18:10 | 41.77803 | -156.80716 | 32742 ft | 549 kts | 98° |
| 2026-05-07 18:10 | 41.76949 | -156.70607 | 32737 ft | 549 kts | 98° |
| 2026-05-07 18:11 | 41.76084 | -156.60463 | 32742 ft | 549 kts | 98° |
| 2026-05-07 18:11 | 41.75223 | -156.50365 | 32745 ft | 548 kts | 98° |
| 2026-05-07 18:12 | 41.74347 | -156.40265 | 32749 ft | 549 kts | 98° |
| 2026-05-07 18:12 | 41.73464 | -156.30182 | 32734 ft | 546 kts | 99° |
| 2026-05-07 18:13 | 41.72563 | -156.20062 | 32729 ft | 545 kts | 99° |
| 2026-05-07 18:13 | 41.71664 | -156.10031 | 32733 ft | 547 kts | 99° |
| 2026-05-07 18:14 | 41.70757 | -155.99977 | 32742 ft | 548 kts | 99° |
| 2026-05-07 18:14 | 41.69845 | -155.89882 | 32739 ft | 547 kts | 99° |
| 2026-05-07 18:15 | 41.68912 | -155.79800 | 32747 ft | 546 kts | 99° |
| 2026-05-07 18:15 | 41.67988 | -155.69820 | 32745 ft | 547 kts | 99° |
| 2026-05-07 18:16 | 41.67038 | -155.59761 | 32751 ft | 544 kts | 99° |
| 2026-05-07 18:16 | 41.66085 | -155.49716 | 32751 ft | 546 kts | 99° |
| 2026-05-07 18:17 | 41.65125 | -155.39716 | 32758 ft | 546 kts | 99° |
| 2026-05-07 18:17 | 41.64154 | -155.29680 | 32748 ft | 543 kts | 100° |
| 2026-05-07 18:18 | 41.63178 | -155.19691 | 32747 ft | 545 kts | 100° |
| 2026-05-07 18:18 | 41.62187 | -155.09631 | 32746 ft | 545 kts | 100° |
| 2026-05-07 18:19 | 41.61197 | -154.99674 | 32741 ft | 543 kts | 99° |
| 2026-05-07 18:19 | 41.60197 | -154.89700 | 32740 ft | 544 kts | 100° |
| 2026-05-07 18:20 | 41.59188 | -154.79723 | 32741 ft | 543 kts | 99° |
| 2026-05-07 18:20 | 41.58169 | -154.69740 | 32743 ft | 543 kts | 99° |
| 2026-05-07 18:21 | 41.57148 | -154.59822 | 32743 ft | 542 kts | 100° |
| 2026-05-07 18:21 | 41.56113 | -154.49860 | 32742 ft | 542 kts | 99° |
| 2026-05-07 18:22 | 41.55072 | -154.39917 | 32743 ft | 543 kts | 99° |
| 2026-05-07 18:22 | 41.54018 | -154.29948 | 32734 ft | 543 kts | 100° |
| 2026-05-07 18:23 | 41.52961 | -154.20023 | 32737 ft | 542 kts | 100° |
| 2026-05-07 18:23 | 41.51892 | -154.10066 | 32744 ft | 543 kts | 100° |
| 2026-05-07 18:24 | 41.50820 | -154.00180 | 32744 ft | 542 kts | 100° |
| 2026-05-07 18:24 | 41.49733 | -153.90224 | 32746 ft | 542 kts | 100° |
| 2026-05-07 18:25 | 41.48640 | -153.80283 | 32753 ft | 543 kts | 100° |
| 2026-05-07 18:25 | 41.47543 | -153.70409 | 32754 ft | 542 kts | 100° |
| 2026-05-07 18:26 | 41.46428 | -153.60446 | 32757 ft | 542 kts | 100° |
| 2026-05-07 18:26 | 41.45312 | -153.50563 | 32759 ft | 543 kts | 100° |
| 2026-05-07 18:27 | 41.44188 | -153.40668 | 32754 ft | 541 kts | 100° |
| 2026-05-07 18:27 | 41.43046 | -153.30710 | 32749 ft | 542 kts | 101° |
| 2026-05-07 18:28 | 41.41905 | -153.20834 | 32746 ft | 542 kts | 101° |
| 2026-05-07 18:28 | 41.40751 | -153.10915 | 32752 ft | 544 kts | 101° |
| 2026-05-07 18:29 | 41.39592 | -153.01041 | 32744 ft | 542 kts | 100° |
| 2026-05-07 18:29 | 41.38422 | -152.91139 | 32726 ft | 543 kts | 100° |
| 2026-05-07 18:30 | 41.37246 | -152.81262 | 32741 ft | 542 kts | 100° |
| 2026-05-07 18:30 | 41.36057 | -152.71359 | 32741 ft | 542 kts | 101° |
| 2026-05-07 18:31 | 41.34857 | -152.61432 | 32745 ft | 542 kts | 100° |
| 2026-05-07 18:31 | 41.33657 | -152.51576 | 32757 ft | 543 kts | 100° |
| 2026-05-07 18:32 | 41.32443 | -152.41684 | 32744 ft | 541 kts | 100° |
| 2026-05-07 18:32 | 41.31224 | -152.31818 | 32732 ft | 542 kts | 101° |
| 2026-05-07 18:33 | 41.29993 | -152.21939 | 32726 ft | 542 kts | 101° |
| 2026-05-07 18:33 | 41.28762 | -152.12115 | 32728 ft | 543 kts | 101° |
| 2026-05-07 18:34 | 41.27511 | -152.02216 | 32730 ft | 543 kts | 101° |
| 2026-05-07 18:34 | 41.26259 | -151.92372 | 32729 ft | 543 kts | 101° |
| 2026-05-07 18:35 | 41.25002 | -151.82564 | 32734 ft | 541 kts | 101° |
| 2026-05-07 18:35 | 41.23731 | -151.72710 | 32732 ft | 541 kts | 101° |
| 2026-05-07 18:36 | 41.22452 | -151.62868 | 32731 ft | 542 kts | 101° |
| 2026-05-07 18:36 | 41.21175 | -151.53104 | 32742 ft | 541 kts | 101° |
| 2026-05-07 18:37 | 41.19883 | -151.43295 | 32748 ft | 541 kts | 101° |
| 2026-05-07 18:37 | 41.18581 | -151.33470 | 32742 ft | 541 kts | 101° |
| 2026-05-07 18:38 | 41.17274 | -151.23683 | 32736 ft | 540 kts | 102° |
| 2026-05-07 18:38 | 41.15959 | -151.13898 | 32736 ft | 541 kts | 101° |
| 2026-05-07 18:39 | 41.14637 | -151.04129 | 32735 ft | 538 kts | 101° |
| 2026-05-07 18:39 | 41.13312 | -150.94402 | 32731 ft | 538 kts | 101° |
| 2026-05-07 18:40 | 41.11978 | -150.84672 | 32729 ft | 539 kts | 101° |
| 2026-05-07 18:40 | 41.10634 | -150.74930 | 32734 ft | 538 kts | 101° |
| 2026-05-07 18:41 | 41.09283 | -150.65210 | 32741 ft | 539 kts | 101° |
| 2026-05-07 18:41 | 41.07923 | -150.55475 | 32736 ft | 538 kts | 101° |
| 2026-05-07 18:42 | 41.06550 | -150.45718 | 32737 ft | 537 kts | 101° |
| 2026-05-07 18:42 | 41.05175 | -150.36006 | 32747 ft | 538 kts | 101° |
| 2026-05-07 18:43 | 41.03787 | -150.26276 | 32741 ft | 537 kts | 102° |
| 2026-05-07 18:43 | 41.02402 | -150.16615 | 32741 ft | 538 kts | 102° |
| 2026-05-07 18:44 | 41.00997 | -150.06886 | 32735 ft | 538 kts | 102° |
| 2026-05-07 18:44 | 40.99882 | -149.97092 | 32721 ft | 546 kts | 92° |
| 2026-05-07 18:44 | 40.99974 | -149.92052 | 32878 ft | 554 kts | 85° |
| 2026-05-07 18:45 | 41.00263 | -149.86989 | 33391 ft | 552 kts | 85° |
| 2026-05-07 18:45 | 41.00542 | -149.82002 | 34102 ft | 545 kts | 85° |
| 2026-05-07 18:45 | 41.00806 | -149.77016 | 34550 ft | 545 kts | 86° |
| 2026-05-07 18:45 | 41.01055 | -149.72021 | 34692 ft | 545 kts | 86° |
| 2026-05-07 18:46 | 41.01288 | -149.67055 | 34711 ft | 543 kts | 86° |
| 2026-05-07 18:46 | 41.01728 | -149.57085 | 34716 ft | 542 kts | 86° |
| 2026-05-07 18:47 | 41.02138 | -149.47174 | 34706 ft | 542 kts | 87° |
| 2026-05-07 18:47 | 41.02532 | -149.37222 | 34730 ft | 543 kts | 87° |
| 2026-05-07 18:48 | 41.02911 | -149.27281 | 34704 ft | 542 kts | 88° |
| 2026-05-07 18:48 | 41.03280 | -149.17314 | 34717 ft | 543 kts | 88° |
| 2026-05-07 18:49 | 41.03637 | -149.07349 | 34723 ft | 542 kts | 88° |
| 2026-05-07 18:49 | 41.03983 | -148.97421 | 34713 ft | 541 kts | 88° |
| 2026-05-07 18:50 | 41.04323 | -148.87462 | 34717 ft | 543 kts | 88° |
| 2026-05-07 18:50 | 41.04651 | -148.77570 | 34712 ft | 540 kts | 88° |
| 2026-05-07 18:51 | 41.04972 | -148.67631 | 34718 ft | 541 kts | 88° |
| 2026-05-07 18:51 | 41.05283 | -148.57739 | 34707 ft | 539 kts | 88° |
| 2026-05-07 18:52 | 41.05586 | -148.47806 | 34708 ft | 540 kts | 88° |
| 2026-05-07 18:52 | 41.05878 | -148.37973 | 34713 ft | 540 kts | 88° |
| 2026-05-07 18:53 | 41.06164 | -148.28050 | 34687 ft | 539 kts | 89° |
| 2026-05-07 18:53 | 41.06441 | -148.18159 | 34687 ft | 540 kts | 89° |
| 2026-05-07 18:54 | 41.06709 | -148.08252 | 34677 ft | 540 kts | 89° |
| 2026-05-07 18:54 | 41.06969 | -147.98354 | 34668 ft | 539 kts | 89° |
| 2026-05-07 18:55 | 41.07221 | -147.88434 | 34691 ft | 540 kts | 89° |
| 2026-05-07 18:55 | 41.07464 | -147.78552 | 34687 ft | 538 kts | 89° |
| 2026-05-07 18:56 | 41.07698 | -147.68642 | 34700 ft | 541 kts | 89° |
| 2026-05-07 18:56 | 41.07923 | -147.58752 | 34703 ft | 540 kts | 89° |
| 2026-05-07 18:57 | 41.08142 | -147.48791 | 34688 ft | 539 kts | 89° |
| 2026-05-07 18:57 | 41.08351 | -147.38881 | 34685 ft | 539 kts | 89° |
| 2026-05-07 18:58 | 41.08551 | -147.29028 | 34670 ft | 539 kts | 90° |
| 2026-05-07 18:58 | 41.08742 | -147.19136 | 34696 ft | 541 kts | 90° |
| 2026-05-07 18:59 | 41.08927 | -147.09184 | 34695 ft | 539 kts | 90° |
| 2026-05-07 18:59 | 41.09101 | -146.99304 | 34692 ft | 538 kts | 90° |
| 2026-05-07 19:00 | 41.09267 | -146.89410 | 34698 ft | 539 kts | 90° |
| 2026-05-07 19:00 | 41.09426 | -146.79497 | 34684 ft | 538 kts | 90° |
| 2026-05-07 19:01 | 41.09575 | -146.69585 | 34705 ft | 540 kts | 90° |
| 2026-05-07 19:01 | 41.09716 | -146.59700 | 34705 ft | 540 kts | 90° |
| 2026-05-07 19:02 | 41.09848 | -146.49811 | 34682 ft | 538 kts | 90° |
| 2026-05-07 19:02 | 41.09973 | -146.39865 | 34700 ft | 539 kts | 91° |
| 2026-05-07 19:03 | 41.10088 | -146.30034 | 34679 ft | 538 kts | 91° |
| 2026-05-07 19:03 | 41.10194 | -146.20158 | 34684 ft | 538 kts | 91° |
| 2026-05-07 19:04 | 41.10293 | -146.10252 | 34680 ft | 538 kts | 91° |
| 2026-05-07 19:04 | 41.10383 | -146.00334 | 34696 ft | 539 kts | 91° |
| 2026-05-07 19:05 | 41.10465 | -145.90440 | 34690 ft | 539 kts | 91° |
| 2026-05-07 19:05 | 41.10538 | -145.80542 | 34681 ft | 538 kts | 91° |
| 2026-05-07 19:06 | 41.10603 | -145.70670 | 34696 ft | 539 kts | 91° |
| 2026-05-07 19:06 | 41.10684 | -145.55808 | 34684 ft | 539 kts | 92° |
| 2026-05-07 19:07 | 41.10727 | -145.45952 | 34702 ft | 539 kts | 92° |
| 2026-05-07 19:07 | 41.10762 | -145.36058 | 34707 ft | 539 kts | 92° |
| 2026-05-07 19:08 | 41.10789 | -145.26163 | 34703 ft | 539 kts | 92° |
| 2026-05-07 19:08 | 41.10807 | -145.16277 | 34708 ft | 538 kts | 92° |
| 2026-05-07 19:09 | 41.10817 | -145.06343 | 34698 ft | 538 kts | 92° |
| 2026-05-07 19:09 | 41.10818 | -144.96474 | 34705 ft | 539 kts | 93° |
| 2026-05-07 19:10 | 41.10811 | -144.86578 | 34704 ft | 538 kts | 93° |
| 2026-05-07 19:10 | 41.10795 | -144.76680 | 34717 ft | 539 kts | 93° |
| 2026-05-07 19:11 | 41.10771 | -144.66780 | 34717 ft | 538 kts | 93° |
| 2026-05-07 19:11 | 41.10738 | -144.56937 | 34714 ft | 538 kts | 93° |
| 2026-05-07 19:12 | 41.10698 | -144.47028 | 34732 ft | 538 kts | 93° |
| 2026-05-07 19:12 | 41.10648 | -144.37161 | 34730 ft | 538 kts | 93° |
| 2026-05-07 19:13 | 41.10591 | -144.27331 | 34721 ft | 537 kts | 94° |
| 2026-05-07 19:13 | 41.10524 | -144.17409 | 34730 ft | 537 kts | 94° |
| 2026-05-07 19:14 | 41.10449 | -144.07555 | 34730 ft | 536 kts | 94° |
| 2026-05-07 19:14 | 41.10366 | -143.97717 | 34739 ft | 536 kts | 94° |
| 2026-05-07 19:15 | 41.10275 | -143.87882 | 34739 ft | 536 kts | 94° |
| 2026-05-07 19:15 | 41.10175 | -143.77998 | 34741 ft | 537 kts | 94° |
| 2026-05-07 19:16 | 41.10067 | -143.68167 | 34745 ft | 536 kts | 94° |
| 2026-05-07 19:16 | 41.09951 | -143.58319 | 34758 ft | 537 kts | 94° |
| 2026-05-07 19:17 | 41.09826 | -143.48454 | 34764 ft | 537 kts | 94° |
| 2026-05-07 19:17 | 41.09691 | -143.38544 | 34765 ft | 537 kts | 95° |
| 2026-05-07 19:18 | 41.09551 | -143.28738 | 34761 ft | 537 kts | 95° |
| 2026-05-07 19:18 | 41.09399 | -143.18851 | 34769 ft | 538 kts | 95° |
| 2026-05-07 19:19 | 41.09242 | -143.09009 | 34765 ft | 535 kts | 95° |
| 2026-05-07 19:19 | 41.09074 | -142.99135 | 34777 ft | 537 kts | 95° |
| 2026-05-07 19:20 | 41.08900 | -142.89340 | 34778 ft | 536 kts | 95° |
| 2026-05-07 19:20 | 41.08716 | -142.79468 | 34785 ft | 536 kts | 95° |
| 2026-05-07 19:21 | 41.08524 | -142.69623 | 34781 ft | 536 kts | 96° |
| 2026-05-07 19:21 | 41.08324 | -142.59814 | 34791 ft | 536 kts | 96° |
| 2026-05-07 19:22 | 41.08114 | -142.49907 | 34798 ft | 536 kts | 96° |
| 2026-05-07 19:22 | 41.07898 | -142.40102 | 34800 ft | 536 kts | 96° |
| 2026-05-07 19:23 | 41.07672 | -142.30222 | 34797 ft | 535 kts | 97° |
| 2026-05-07 19:23 | 41.07441 | -142.20422 | 34565 ft | 534 kts | 97° |
| 2026-05-07 19:24 | 41.07319 | -142.15463 | 34738 ft | 537 kts | 97° |
| 2026-05-07 19:24 | 41.07196 | -142.10585 | 34806 ft | 540 kts | 97° |
| 2026-05-07 19:24 | 41.06944 | -142.00667 | 34826 ft | 538 kts | 97° |
| 2026-05-07 19:25 | 41.06684 | -141.90804 | 34839 ft | 540 kts | 97° |
| 2026-05-07 19:25 | 41.06415 | -141.80885 | 34849 ft | 536 kts | 97° |
| 2026-05-07 19:26 | 41.06139 | -141.71071 | 34840 ft | 537 kts | 97° |
| 2026-05-07 19:26 | 41.05856 | -141.61250 | 34814 ft | 535 kts | 97° |
| 2026-05-07 19:27 | 41.05559 | -141.51315 | 34824 ft | 540 kts | 97° |
| 2026-05-07 19:27 | 41.05260 | -141.41484 | 34834 ft | 537 kts | 98° |
| 2026-05-07 19:28 | 41.05106 | -141.36552 | 35125 ft | 537 kts | 98° |
| 2026-05-07 19:28 | 41.04948 | -141.31576 | 34924 ft | 538 kts | 98° |
| 2026-05-07 19:28 | 41.04637 | -141.21838 | 34846 ft | 531 kts | 99° |
| 2026-05-07 19:29 | 41.04308 | -141.12016 | 34858 ft | 536 kts | 99° |
| 2026-05-07 19:29 | 41.03975 | -141.02208 | 34853 ft | 534 kts | 98° |
| 2026-05-07 19:30 | 41.03630 | -140.92343 | 34870 ft | 535 kts | 99° |
| 2026-05-07 19:30 | 41.03280 | -140.82524 | 34864 ft | 534 kts | 99° |
| 2026-05-07 19:31 | 41.02920 | -140.72716 | 34866 ft | 538 kts | 99° |
| 2026-05-07 19:31 | 41.02552 | -140.62885 | 34867 ft | 535 kts | 99° |
| 2026-05-07 19:32 | 41.02178 | -140.53134 | 34866 ft | 536 kts | 99° |
| 2026-05-07 19:32 | 41.01794 | -140.43291 | 34870 ft | 534 kts | 99° |
| 2026-05-07 19:33 | 41.01398 | -140.33440 | 34873 ft | 537 kts | 100° |
| 2026-05-07 19:33 | 41.01000 | -140.23663 | 34875 ft | 536 kts | 101° |
| 2026-05-07 19:34 | 41.00592 | -140.13878 | 34878 ft | 534 kts | 101° |
| 2026-05-07 19:34 | 41.00176 | -140.04082 | 34872 ft | 534 kts | 101° |
| 2026-05-07 19:35 | 40.99672 | -139.94296 | 34882 ft | 535 kts | 102° |
| 2026-05-07 19:35 | 40.99122 | -139.84523 | 34894 ft | 535 kts | 102° |
| 2026-05-07 19:36 | 40.98560 | -139.74701 | 34902 ft | 534 kts | 102° |
| 2026-05-07 19:36 | 40.97991 | -139.64938 | 34906 ft | 535 kts | 102° |
| 2026-05-07 19:37 | 40.97416 | -139.55185 | 34914 ft | 533 kts | 102° |
| 2026-05-07 19:37 | 40.96833 | -139.45474 | 34926 ft | 532 kts | 102° |
| 2026-05-07 19:38 | 40.96241 | -139.35754 | 34928 ft | 533 kts | 102° |
| 2026-05-07 19:38 | 40.95638 | -139.25977 | 34916 ft | 531 kts | 103° |
| 2026-05-07 19:39 | 40.95029 | -139.16267 | 34923 ft | 533 kts | 103° |
| 2026-05-07 19:39 | 40.94414 | -139.06564 | 34925 ft | 531 kts | 103° |
| 2026-05-07 19:40 | 40.93783 | -138.96785 | 34930 ft | 536 kts | 103° |
| 2026-05-07 19:40 | 40.93152 | -138.87054 | 34930 ft | 533 kts | 103° |
| 2026-05-07 19:41 | 40.92509 | -138.77328 | 34933 ft | 533 kts | 103° |
| 2026-05-07 19:41 | 40.91859 | -138.67616 | 34937 ft | 534 kts | 103° |
| 2026-05-07 19:42 | 40.91200 | -138.57887 | 34935 ft | 532 kts | 103° |
| 2026-05-07 19:42 | 40.90538 | -138.48224 | 34937 ft | 531 kts | 103° |
| 2026-05-07 19:43 | 40.89865 | -138.38525 | 34957 ft | 531 kts | 103° |
| 2026-05-07 19:43 | 40.89185 | -138.28825 | 34965 ft | 530 kts | 104° |
| 2026-05-07 19:44 | 40.88500 | -138.19188 | 34971 ft | 530 kts | 104° |
| 2026-05-07 19:44 | 40.87806 | -138.09558 | 34970 ft | 528 kts | 104° |
| 2026-05-07 19:45 | 40.87104 | -137.99924 | 34961 ft | 527 kts | 104° |
| 2026-05-07 19:45 | 40.86400 | -137.90376 | 34971 ft | 528 kts | 103° |
| 2026-05-07 19:46 | 40.85684 | -137.80765 | 34980 ft | 529 kts | 103° |
| 2026-05-07 19:46 | 40.84959 | -137.71152 | 34976 ft | 527 kts | 103° |
| 2026-05-07 19:47 | 40.84230 | -137.61569 | 34986 ft | 527 kts | 103° |
| 2026-05-07 19:47 | 40.83487 | -137.51935 | 34998 ft | 528 kts | 103° |
| 2026-05-07 19:48 | 40.82744 | -137.42380 | 35007 ft | 527 kts | 103° |
| 2026-05-07 19:48 | 40.81991 | -137.32814 | 35003 ft | 524 kts | 104° |
| 2026-05-07 19:49 | 40.81235 | -137.23311 | 35005 ft | 523 kts | 104° |
| 2026-05-07 19:49 | 40.80459 | -137.13684 | 35019 ft | 529 kts | 104° |
| 2026-05-07 19:50 | 40.79689 | -137.04181 | 35024 ft | 524 kts | 104° |
| 2026-05-07 19:50 | 40.78907 | -136.94650 | 35029 ft | 523 kts | 103° |
| 2026-05-07 19:51 | 40.78112 | -136.85082 | 35027 ft | 524 kts | 103° |
| 2026-05-07 19:51 | 40.77318 | -136.75598 | 35039 ft | 523 kts | 103° |
| 2026-05-07 19:52 | 40.76511 | -136.66071 | 35043 ft | 525 kts | 103° |
| 2026-05-07 19:52 | 40.75703 | -136.56606 | 35048 ft | 521 kts | 103° |
| 2026-05-07 19:53 | 40.74879 | -136.47081 | 35047 ft | 526 kts | 103° |
| 2026-05-07 19:53 | 40.74054 | -136.37605 | 35053 ft | 524 kts | 103° |
| 2026-05-07 19:54 | 40.73220 | -136.28120 | 35051 ft | 524 kts | 103° |
| 2026-05-07 19:54 | 40.72378 | -136.18640 | 35047 ft | 521 kts | 103° |
| 2026-05-07 19:55 | 40.71526 | -136.09137 | 35060 ft | 521 kts | 103° |
| 2026-05-07 19:55 | 40.70672 | -135.99704 | 35076 ft | 522 kts | 103° |
| 2026-05-07 19:56 | 40.69803 | -135.90199 | 35063 ft | 523 kts | 103° |
| 2026-05-07 19:56 | 40.68938 | -135.80806 | 35087 ft | 520 kts | 103° |
| 2026-05-07 19:57 | 40.68057 | -135.71356 | 35078 ft | 522 kts | 103° |
| 2026-05-07 19:57 | 40.67172 | -135.61912 | 35089 ft | 523 kts | 103° |
| 2026-05-07 19:58 | 40.66278 | -135.52470 | 35091 ft | 521 kts | 103° |
| 2026-05-07 19:58 | 40.65377 | -135.43031 | 35095 ft | 519 kts | 103° |
| 2026-05-07 19:59 | 40.64472 | -135.33655 | 35100 ft | 520 kts | 103° |
| 2026-05-07 19:59 | 40.63561 | -135.24283 | 35100 ft | 520 kts | 103° |
| 2026-05-07 20:00 | 40.62639 | -135.14879 | 35105 ft | 518 kts | 103° |
| 2026-05-07 20:00 | 40.61708 | -135.05466 | 35114 ft | 519 kts | 103° |
| 2026-05-07 20:01 | 40.60775 | -134.96100 | 35107 ft | 518 kts | 103° |
| 2026-05-07 20:01 | 40.59831 | -134.86719 | 35115 ft | 520 kts | 103° |
| 2026-05-07 20:02 | 40.58875 | -134.77296 | 35114 ft | 519 kts | 103° |
| 2026-05-07 20:02 | 40.57921 | -134.67963 | 35120 ft | 518 kts | 103° |
| 2026-05-07 20:03 | 40.56959 | -134.58640 | 35121 ft | 518 kts | 103° |
| 2026-05-07 20:03 | 40.55982 | -134.49232 | 35127 ft | 519 kts | 103° |
| 2026-05-07 20:04 | 40.55005 | -134.39903 | 35134 ft | 518 kts | 102° |
| 2026-05-07 20:04 | 40.54015 | -134.30533 | 35127 ft | 517 kts | 103° |
| 2026-05-07 20:05 | 40.53027 | -134.21245 | 35136 ft | 517 kts | 103° |
| 2026-05-07 20:05 | 40.52027 | -134.11926 | 35140 ft | 518 kts | 103° |
| 2026-05-07 20:06 | 40.51019 | -134.02602 | 35142 ft | 516 kts | 103° |
| 2026-05-07 20:06 | 40.50004 | -133.93280 | 35150 ft | 517 kts | 102° |
| 2026-05-07 20:07 | 40.48984 | -133.83989 | 35155 ft | 515 kts | 102° |
| 2026-05-07 20:07 | 40.47958 | -133.74712 | 35157 ft | 516 kts | 102° |
| 2026-05-07 20:08 | 40.46920 | -133.65401 | 35168 ft | 517 kts | 102° |
| 2026-05-07 20:08 | 40.45878 | -133.56113 | 35168 ft | 515 kts | 102° |
| 2026-05-07 20:09 | 40.44822 | -133.46785 | 35174 ft | 516 kts | 102° |
| 2026-05-07 20:10 | 40.43229 | -133.32829 | 35176 ft | 516 kts | 103° |
| 2026-05-07 20:10 | 40.42160 | -133.23552 | 35173 ft | 516 kts | 103° |
| 2026-05-07 20:11 | 40.41803 | -133.20470 | 35170 ft | 517 kts | 103° |
| 2026-05-07 20:11 | 40.40906 | -133.12747 | 35175 ft | 516 kts | 102° |
| 2026-05-07 20:12 | 40.38911 | -132.95755 | 35187 ft | 514 kts | 102° |
| 2026-05-07 20:12 | 40.37817 | -132.86525 | 35191 ft | 514 kts | 102° |
| 2026-05-07 20:13 | 40.36722 | -132.77347 | 35194 ft | 513 kts | 102° |
| 2026-05-07 20:13 | 40.35609 | -132.68091 | 35195 ft | 513 kts | 102° |
| 2026-05-07 20:14 | 40.34499 | -132.58923 | 35204 ft | 513 kts | 102° |
| 2026-05-07 20:14 | 40.33377 | -132.49715 | 35204 ft | 512 kts | 102° |
| 2026-05-07 20:15 | 40.32251 | -132.40536 | 35210 ft | 513 kts | 102° |
| 2026-05-07 20:15 | 40.31115 | -132.31346 | 35202 ft | 511 kts | 102° |
| 2026-05-07 20:16 | 40.29973 | -132.22165 | 35209 ft | 511 kts | 102° |
| 2026-05-07 20:16 | 40.28826 | -132.12999 | 35213 ft | 511 kts | 102° |
| 2026-05-07 20:17 | 40.27681 | -132.03914 | 35214 ft | 509 kts | 102° |
| 2026-05-07 20:17 | 40.26522 | -131.94780 | 35220 ft | 510 kts | 102° |
| 2026-05-07 20:18 | 40.25354 | -131.85632 | 35222 ft | 510 kts | 102° |
| 2026-05-07 20:18 | 40.24179 | -131.76495 | 35225 ft | 510 kts | 102° |
| 2026-05-07 20:19 | 40.22995 | -131.67351 | 35227 ft | 512 kts | 101° |
| 2026-05-07 20:19 | 40.21812 | -131.58269 | 35230 ft | 509 kts | 101° |
| 2026-05-07 20:20 | 40.20623 | -131.49182 | 35232 ft | 509 kts | 101° |
| 2026-05-07 20:20 | 40.19420 | -131.40051 | 35236 ft | 510 kts | 101° |
| 2026-05-07 20:21 | 40.18221 | -131.31012 | 35228 ft | 507 kts | 102° |
| 2026-05-07 20:21 | 40.17004 | -131.21901 | 35231 ft | 507 kts | 102° |
| 2026-05-07 20:22 | 40.15783 | -131.12817 | 35233 ft | 508 kts | 102° |
| 2026-05-07 20:22 | 40.14565 | -131.03803 | 35232 ft | 508 kts | 102° |
| 2026-05-07 20:23 | 40.13332 | -130.94728 | 35233 ft | 508 kts | 101° |
| 2026-05-07 20:23 | 40.12092 | -130.85664 | 35235 ft | 506 kts | 101° |
| 2026-05-07 20:24 | 40.10849 | -130.76634 | 35228 ft | 508 kts | 101° |
| 2026-05-07 20:24 | 40.09595 | -130.67580 | 35222 ft | 507 kts | 101° |
| 2026-05-07 20:25 | 40.08338 | -130.58553 | 35221 ft | 508 kts | 101° |
| 2026-05-07 20:25 | 40.07070 | -130.49510 | 35223 ft | 509 kts | 101° |
| 2026-05-07 20:26 | 40.05792 | -130.40437 | 35224 ft | 510 kts | 101° |
| 2026-05-07 20:26 | 40.04516 | -130.31441 | 35217 ft | 507 kts | 101° |
| 2026-05-07 20:27 | 40.03222 | -130.22362 | 35218 ft | 509 kts | 101° |
| 2026-05-07 20:27 | 40.01923 | -130.13309 | 35219 ft | 510 kts | 101° |
| 2026-05-07 20:28 | 40.00615 | -130.04250 | 35220 ft | 509 kts | 101° |
| 2026-05-07 20:28 | 39.99807 | -129.95143 | 35216 ft | 507 kts | 89° |
| 2026-05-07 20:29 | 40.00031 | -129.85941 | 35223 ft | 507 kts | 88° |
| 2026-05-07 20:29 | 40.00230 | -129.76799 | 35227 ft | 506 kts | 88° |
| 2026-05-07 20:30 | 40.00388 | -129.67658 | 35232 ft | 505 kts | 88° |
| 2026-05-07 20:30 | 40.00520 | -129.58507 | 35235 ft | 505 kts | 88° |
| 2026-05-07 20:31 | 40.00635 | -129.49341 | 35235 ft | 505 kts | 88° |
| 2026-05-07 20:31 | 40.00736 | -129.40173 | 35237 ft | 505 kts | 88° |
| 2026-05-07 20:32 | 40.00826 | -129.31047 | 35230 ft | 506 kts | 88° |
| 2026-05-07 20:32 | 40.00908 | -129.21933 | 35225 ft | 504 kts | 88° |
| 2026-05-07 20:33 | 40.00981 | -129.12831 | 35229 ft | 503 kts | 88° |
| 2026-05-07 20:33 | 40.01047 | -129.03716 | 35216 ft | 502 kts | 88° |
| 2026-05-07 20:34 | 40.01105 | -128.94618 | 35216 ft | 502 kts | 88° |
| 2026-05-07 20:34 | 40.01157 | -128.85568 | 35222 ft | 501 kts | 88° |
| 2026-05-07 20:35 | 40.01200 | -128.76494 | 35223 ft | 503 kts | 88° |
| 2026-05-07 20:35 | 40.01236 | -128.67397 | 35224 ft | 501 kts | 88° |
| 2026-05-07 20:36 | 40.01266 | -128.58345 | 35224 ft | 503 kts | 88° |
| 2026-05-07 20:36 | 40.01288 | -128.49234 | 35225 ft | 502 kts | 88° |
| 2026-05-07 20:37 | 40.01303 | -128.40160 | 35225 ft | 500 kts | 88° |
| 2026-05-07 20:37 | 40.01312 | -128.31140 | 35220 ft | 500 kts | 88° |
| 2026-05-07 20:38 | 40.01313 | -128.22084 | 35221 ft | 501 kts | 88° |
| 2026-05-07 20:38 | 40.01306 | -128.13054 | 35222 ft | 500 kts | 88° |
| 2026-05-07 20:39 | 40.01294 | -128.04033 | 35223 ft | 500 kts | 88° |
| 2026-05-07 20:39 | 40.01273 | -127.94994 | 35222 ft | 499 kts | 88° |
| 2026-05-07 20:40 | 40.01246 | -127.85933 | 35217 ft | 498 kts | 88° |
| 2026-05-07 20:40 | 40.01212 | -127.76928 | 35219 ft | 498 kts | 88° |
| 2026-05-07 20:41 | 40.01172 | -127.67956 | 35220 ft | 497 kts | 88° |
| 2026-05-07 20:41 | 40.01124 | -127.58945 | 35217 ft | 497 kts | 88° |
| 2026-05-07 20:42 | 40.01070 | -127.50002 | 35220 ft | 496 kts | 88° |
| 2026-05-07 20:42 | 40.01008 | -127.41006 | 35225 ft | 495 kts | 88° |
| 2026-05-07 20:43 | 40.00940 | -127.32080 | 35222 ft | 495 kts | 89° |
| 2026-05-07 20:43 | 40.00865 | -127.23153 | 35220 ft | 494 kts | 89° |
| 2026-05-07 20:44 | 40.00783 | -127.14218 | 35223 ft | 493 kts | 88° |
| 2026-05-07 20:44 | 40.00694 | -127.05308 | 35223 ft | 493 kts | 88° |
| 2026-05-07 20:45 | 39.99680 | -126.96481 | 35226 ft | 496 kts | 104° |
| 2026-05-07 20:45 | 39.97723 | -126.87943 | 35224 ft | 495 kts | 105° |
| 2026-05-07 20:46 | 39.95709 | -126.79379 | 35220 ft | 494 kts | 105° |
| 2026-05-07 20:46 | 39.93676 | -126.70816 | 35217 ft | 495 kts | 105° |
| 2026-05-07 20:47 | 39.91648 | -126.62330 | 35213 ft | 493 kts | 105° |
| 2026-05-07 20:47 | 39.89602 | -126.53815 | 35210 ft | 494 kts | 105° |
| 2026-05-07 20:48 | 39.87561 | -126.45360 | 35194 ft | 491 kts | 106° |
| 2026-05-07 20:48 | 39.85508 | -126.36893 | 35200 ft | 492 kts | 105° |
| 2026-05-07 20:49 | 39.83442 | -126.28401 | 35189 ft | 490 kts | 106° |
| 2026-05-07 20:49 | 39.81384 | -126.19976 | 35187 ft | 492 kts | 106° |
| 2026-05-07 20:50 | 39.79320 | -126.11556 | 35183 ft | 490 kts | 106° |
| 2026-05-07 20:50 | 39.77242 | -126.03109 | 35181 ft | 490 kts | 107° |
| 2026-05-07 20:51 | 39.75173 | -125.94730 | 35179 ft | 490 kts | 107° |
| 2026-05-07 20:51 | 39.73087 | -125.86311 | 35178 ft | 490 kts | 107° |
| 2026-05-07 20:52 | 39.70999 | -125.77916 | 35176 ft | 490 kts | 107° |
| 2026-05-07 20:52 | 39.68916 | -125.69566 | 35174 ft | 489 kts | 107° |
| 2026-05-07 20:53 | 39.66824 | -125.61211 | 35173 ft | 488 kts | 107° |
| 2026-05-07 20:53 | 39.64722 | -125.52846 | 35174 ft | 488 kts | 107° |
| 2026-05-07 20:54 | 39.62627 | -125.44534 | 35174 ft | 487 kts | 107° |
| 2026-05-07 20:54 | 39.60518 | -125.36195 | 35176 ft | 488 kts | 108° |
| 2026-05-07 20:55 | 39.58401 | -125.27859 | 35171 ft | 486 kts | 108° |
| 2026-05-07 20:55 | 39.56288 | -125.19564 | 35170 ft | 485 kts | 109° |
| 2026-05-07 20:56 | 39.54185 | -125.11337 | 35175 ft | 485 kts | 109° |
| 2026-05-07 20:56 | 39.52079 | -125.03122 | 35167 ft | 482 kts | 108° |
| 2026-05-07 20:57 | 39.49961 | -124.94891 | 35166 ft | 482 kts | 109° |
| 2026-05-07 20:57 | 39.47836 | -124.86661 | 35167 ft | 482 kts | 109° |
| 2026-05-07 20:58 | 39.45707 | -124.78443 | 35165 ft | 482 kts | 109° |
| 2026-05-07 20:58 | 39.43591 | -124.70298 | 35163 ft | 481 kts | 109° |
| 2026-05-07 20:59 | 39.41458 | -124.62118 | 35160 ft | 482 kts | 109° |
| 2026-05-07 20:59 | 39.39311 | -124.53914 | 35160 ft | 481 kts | 109° |
| 2026-05-07 21:00 | 39.37174 | -124.45772 | 35159 ft | 481 kts | 109° |
| 2026-05-07 21:00 | 39.35020 | -124.37591 | 35160 ft | 481 kts | 109° |
| 2026-05-07 21:01 | 39.32873 | -124.29464 | 35156 ft | 481 kts | 109° |
| 2026-05-07 21:01 | 39.30712 | -124.21313 | 35154 ft | 481 kts | 109° |
| 2026-05-07 21:02 | 39.28549 | -124.13177 | 35151 ft | 481 kts | 110° |
| 2026-05-07 21:02 | 39.26380 | -124.05046 | 35154 ft | 480 kts | 110° |
| 2026-05-07 21:03 | 39.24191 | -123.96870 | 35144 ft | 481 kts | 109° |
| 2026-05-07 21:03 | 39.22018 | -123.88773 | 35149 ft | 480 kts | 110° |
| 2026-05-07 21:04 | 39.19825 | -123.80631 | 35148 ft | 481 kts | 109° |
| 2026-05-07 21:04 | 39.17639 | -123.72540 | 35145 ft | 481 kts | 109° |
| 2026-05-07 21:05 | 39.15445 | -123.64441 | 35135 ft | 481 kts | 110° |
| 2026-05-07 21:05 | 39.13226 | -123.56286 | 35135 ft | 482 kts | 109° |
| 2026-05-07 21:06 | 39.11027 | -123.48226 | 35129 ft | 482 kts | 109° |
| 2026-05-07 21:06 | 39.08805 | -123.40112 | 35127 ft | 482 kts | 109° |
| 2026-05-07 21:07 | 39.06570 | -123.31967 | 35120 ft | 481 kts | 110° |
| 2026-05-07 21:07 | 39.04656 | -123.23779 | 35120 ft | 481 kts | 102° |
| 2026-05-07 21:08 | 39.03283 | -123.15350 | 35126 ft | 481 kts | 102° |
| 2026-05-07 21:08 | 39.01908 | -123.06966 | 35135 ft | 481 kts | 102° |
| 2026-05-07 21:09 | 39.00520 | -122.98597 | 35149 ft | 481 kts | 102° |
| 2026-05-07 21:09 | 38.99114 | -122.90187 | 35138 ft | 481 kts | 102° |
| 2026-05-07 21:10 | 38.97712 | -122.81852 | 35125 ft | 481 kts | 102° |
| 2026-05-07 21:10 | 38.96292 | -122.73467 | 35109 ft | 480 kts | 102° |
| 2026-05-07 21:11 | 38.94873 | -122.65120 | 35104 ft | 480 kts | 102° |
| 2026-05-07 21:11 | 38.92730 | -122.52598 | 35098 ft | 479 kts | 102° |
| 2026-05-07 21:12 | 38.91301 | -122.44298 | 35096 ft | 478 kts | 102° |
| 2026-05-07 21:12 | 38.89866 | -122.35995 | 35087 ft | 477 kts | 102° |
| 2026-05-07 21:13 | 38.88427 | -122.27712 | 35090 ft | 477 kts | 103° |
| 2026-05-07 21:13 | 38.86977 | -122.19398 | 35077 ft | 476 kts | 103° |
| 2026-05-07 21:14 | 38.85533 | -122.11160 | 35062 ft | 476 kts | 103° |
| 2026-05-07 21:14 | 38.84082 | -122.02917 | 35039 ft | 476 kts | 103° |
| 2026-05-07 21:15 | 38.82623 | -121.94661 | 35031 ft | 476 kts | 103° |
| 2026-05-07 21:15 | 38.81155 | -121.86395 | 35038 ft | 476 kts | 103° |
| 2026-05-07 21:16 | 38.79680 | -121.78127 | 35051 ft | 476 kts | 103° |
| 2026-05-07 21:16 | 38.78202 | -121.69871 | 35059 ft | 477 kts | 103° |
| 2026-05-07 21:17 | 38.76718 | -121.61626 | 35065 ft | 477 kts | 103° |
| 2026-05-07 21:17 | 38.75227 | -121.53378 | 35067 ft | 480 kts | 103° |
| 2026-05-07 21:18 | 38.73725 | -121.45101 | 35068 ft | 479 kts | 102° |
| 2026-05-07 21:18 | 38.72211 | -121.36791 | 35069 ft | 478 kts | 102° |
| 2026-05-07 21:19 | 38.70711 | -121.28596 | 35069 ft | 475 kts | 103° |
| 2026-05-07 21:19 | 38.69196 | -121.20358 | 35071 ft | 476 kts | 103° |
| 2026-05-07 21:20 | 38.67678 | -121.12133 | 35076 ft | 475 kts | 103° |
| 2026-05-07 21:20 | 38.66165 | -121.03968 | 35078 ft | 475 kts | 103° |
| 2026-05-07 21:21 | 38.64638 | -120.95764 | 35095 ft | 476 kts | 103° |
| 2026-05-07 21:21 | 38.63105 | -120.87564 | 35120 ft | 476 kts | 103° |
| 2026-05-07 21:22 | 38.61562 | -120.79346 | 35129 ft | 476 kts | 103° |
| 2026-05-07 21:22 | 38.60021 | -120.71165 | 35143 ft | 475 kts | 103° |
| 2026-05-07 21:23 | 38.58466 | -120.62952 | 35172 ft | 475 kts | 103° |
| 2026-05-07 21:23 | 38.56911 | -120.54768 | 35196 ft | 474 kts | 103° |
| 2026-05-07 21:24 | 38.55359 | -120.46637 | 35221 ft | 474 kts | 103° |
| 2026-05-07 21:24 | 38.53797 | -120.38481 | 35241 ft | 475 kts | 103° |
| 2026-05-07 21:25 | 38.52222 | -120.30295 | 35268 ft | 476 kts | 103° |
| 2026-05-07 21:25 | 38.50644 | -120.22122 | 35286 ft | 475 kts | 103° |
| 2026-05-07 21:26 | 38.49063 | -120.13971 | 35311 ft | 475 kts | 103° |
| 2026-05-07 21:26 | 38.47469 | -120.05785 | 35339 ft | 475 kts | 103° |
| 2026-05-07 21:27 | 38.45880 | -119.97652 | 35353 ft | 475 kts | 103° |
| 2026-05-07 21:27 | 38.44286 | -119.89533 | 35353 ft | 474 kts | 103° |
| 2026-05-07 21:28 | 38.42683 | -119.81397 | 35355 ft | 474 kts | 103° |
| 2026-05-07 21:28 | 38.41072 | -119.73256 | 35355 ft | 475 kts | 103° |
| 2026-05-07 21:29 | 38.39460 | -119.65136 | 35353 ft | 475 kts | 103° |
| 2026-05-07 21:29 | 38.37833 | -119.56977 | 35356 ft | 475 kts | 103° |
| 2026-05-07 21:30 | 38.36210 | -119.48868 | 35361 ft | 475 kts | 103° |
| 2026-05-07 21:30 | 38.34574 | -119.40726 | 35358 ft | 475 kts | 103° |
| 2026-05-07 21:31 | 38.32932 | -119.32588 | 35354 ft | 475 kts | 103° |
| 2026-05-07 21:31 | 38.31280 | -119.24430 | 35345 ft | 475 kts | 103° |
| 2026-05-07 21:32 | 38.29630 | -119.16314 | 35350 ft | 475 kts | 103° |
| 2026-05-07 21:32 | 38.27981 | -119.08231 | 35369 ft | 475 kts | 103° |
| 2026-05-07 21:33 | 38.26313 | -119.00091 | 35389 ft | 475 kts | 103° |
| 2026-05-07 21:33 | 38.24647 | -118.91981 | 35391 ft | 475 kts | 103° |
| 2026-05-07 21:34 | 38.22969 | -118.83855 | 35381 ft | 475 kts | 103° |
| 2026-05-07 21:34 | 38.21287 | -118.75736 | 35360 ft | 475 kts | 103° |
| 2026-05-07 21:35 | 38.19601 | -118.67634 | 35352 ft | 475 kts | 103° |
| 2026-05-07 21:35 | 38.17910 | -118.59536 | 35360 ft | 475 kts | 103° |
| 2026-05-07 21:36 | 38.16216 | -118.51452 | 35355 ft | 475 kts | 103° |
| 2026-05-07 21:36 | 38.14517 | -118.43372 | 35332 ft | 476 kts | 103° |
| 2026-05-07 21:37 | 38.12805 | -118.35265 | 35325 ft | 476 kts | 103° |
| 2026-05-07 21:37 | 38.11088 | -118.27161 | 35301 ft | 476 kts | 103° |
| 2026-05-07 21:38 | 38.09372 | -118.19093 | 35273 ft | 476 kts | 103° |
| 2026-05-07 21:38 | 38.07647 | -118.11015 | 35248 ft | 477 kts | 103° |
| 2026-05-07 21:39 | 38.05912 | -118.02917 | 35234 ft | 476 kts | 103° |
| 2026-05-07 21:39 | 38.04178 | -117.94853 | 35222 ft | 477 kts | 103° |
| 2026-05-07 21:40 | 38.02434 | -117.86763 | 35224 ft | 478 kts | 103° |
| 2026-05-07 21:40 | 37.99896 | -117.79001 | 35229 ft | 481 kts | 120° |
| 2026-05-07 21:41 | 37.95623 | -117.72506 | 35250 ft | 483 kts | 135° |
| 2026-05-07 21:41 | 37.90638 | -117.66795 | 35264 ft | 484 kts | 136° |
| 2026-05-07 21:42 | 37.85601 | -117.61186 | 35264 ft | 484 kts | 137° |
| 2026-05-07 21:42 | 37.80522 | -117.55605 | 35253 ft | 485 kts | 137° |
| 2026-05-07 21:43 | 37.75419 | -117.50042 | 35233 ft | 485 kts | 137° |
| 2026-05-07 21:43 | 37.70321 | -117.44514 | 35238 ft | 484 kts | 137° |
| 2026-05-07 21:44 | 37.65209 | -117.38992 | 35252 ft | 484 kts | 137° |
| 2026-05-07 21:44 | 37.60081 | -117.33468 | 35262 ft | 484 kts | 138° |
| 2026-05-07 21:45 | 37.54961 | -117.27966 | 35259 ft | 484 kts | 138° |
| 2026-05-07 21:45 | 37.49855 | -117.22490 | 35256 ft | 484 kts | 138° |
| 2026-05-07 21:46 | 37.44492 | -117.17347 | 35256 ft | 486 kts | 143° |
| 2026-05-07 21:46 | 37.38946 | -117.12528 | 35247 ft | 486 kts | 144° |
| 2026-05-07 21:47 | 37.33399 | -117.07718 | 35239 ft | 486 kts | 143° |
| 2026-05-07 21:47 | 37.27866 | -117.02921 | 35215 ft | 484 kts | 143° |
| 2026-05-07 21:48 | 37.22331 | -116.98128 | 35188 ft | 484 kts | 143° |
| 2026-05-07 21:48 | 37.16766 | -116.93319 | 35207 ft | 485 kts | 143° |
| 2026-05-07 21:49 | 37.11239 | -116.88551 | 35214 ft | 482 kts | 143° |
| 2026-05-07 21:49 | 37.08516 | -116.86206 | 35210 ft | 471 kts | 143° |
| 2026-05-07 21:49 | 37.05782 | -116.83852 | 35216 ft | 481 kts | 143° |
| 2026-05-07 21:50 | 37.00190 | -116.79044 | 35202 ft | 487 kts | 143° |
| 2026-05-07 21:50 | 36.94630 | -116.74273 | 35164 ft | 487 kts | 143° |
| 2026-05-07 21:51 | 36.89052 | -116.69495 | 35143 ft | 487 kts | 143° |
| 2026-05-07 21:51 | 36.83479 | -116.64730 | 35137 ft | 487 kts | 143° |
| 2026-05-07 21:52 | 36.77853 | -116.59929 | 35120 ft | 487 kts | 143° |
| 2026-05-07 21:52 | 36.72287 | -116.55188 | 35089 ft | 487 kts | 143° |
| 2026-05-07 21:53 | 36.66671 | -116.50381 | 35085 ft | 486 kts | 140° |
| 2026-05-07 21:53 | 36.61885 | -116.44558 | 35086 ft | 483 kts | 128° |
| 2026-05-07 21:54 | 36.57472 | -116.38310 | 35075 ft | 483 kts | 128° |
| 2026-05-07 21:54 | 36.53029 | -116.32029 | 35060 ft | 483 kts | 129° |
| 2026-05-07 21:55 | 36.48622 | -116.25814 | 35049 ft | 483 kts | 129° |
| 2026-05-07 21:55 | 36.44171 | -116.19550 | 35075 ft | 479 kts | 129° |
| 2026-05-07 21:56 | 36.42001 | -116.16505 | 35087 ft | 462 kts | 128° |
| 2026-05-07 21:56 | 36.39914 | -116.13580 | 35093 ft | 445 kts | 128° |
| 2026-05-07 21:56 | 36.37899 | -116.10755 | 35103 ft | 430 kts | 128° |
| 2026-05-07 21:56 | 36.35924 | -116.07986 | 35112 ft | 432 kts | 128° |
| 2026-05-07 21:57 | 36.31918 | -116.02374 | 35092 ft | 438 kts | 128° |
| 2026-05-07 21:57 | 36.27874 | -115.96723 | 35087 ft | 436 kts | 128° |
| 2026-05-07 21:58 | 36.23902 | -115.91115 | 35123 ft | 434 kts | 125° |
| 2026-05-07 21:58 | 36.20194 | -115.85184 | 35164 ft | 435 kts | 124° |
| 2026-05-07 21:59 | 36.16502 | -115.79288 | 35177 ft | 435 kts | 124° |
| 2026-05-07 21:59 | 36.13293 | -115.73023 | 35181 ft | 426 kts | 109° |
| 2026-05-07 22:00 | 36.11170 | -115.66263 | 35166 ft | 425 kts | 107° |
| 2026-05-07 22:00 | 36.09068 | -115.59443 | 35158 ft | 426 kts | 107° |